PWSweather.com
Personal Weather Stations
Station Observations
DL5ARK
SonnebergDE

SonnebergDE

Lat: 50.34904861, Lon: 11.18112087

Elevation: 1214

Station Type: Selfmade

http://www.sumbarg.de

High Low Average
Temperature 82.6°F28.1°C 43.4°F6.3°C 64.3°F17.9°C
Dew Point 54.4°F12.4°C 42.4°F5.8°C 47.7°F8.7°C
Winds 13.3 mph 21.4 kmh Calm Calm 2.0 mph S3.2 kmh S
Wind Gusts 13.3 mph21.4 kmh -- 2.0 mph3.2 kmh
Humidity 65% 26% 40%
Pressure 30.07 in1018.3 mb 29.98 in1015.2 mb -
Precipitation 0.00 in0.0 mm - -
Hour Temp Dew Point Humidity Winds Wind Gusts Pressure Precip Precip Rate Daily Precip Total
12:02 AM 53.9°F12.2°C 45.7°F7.6°C 51% Calm Calm -- 30.07 in1018.3 mb 0.00 in0.0 mm 0.00 in0.0 mm 0.00 in0.0 mm
12:05 AM 53.8°F12.1°C 45.6°F7.6°C 51% Calm Calm -- 30.07 in1018.3 mb 0.00 in0.0 mm 0.00 in0.0 mm 0.00 in0.0 mm
12:08 AM 52.8°F11.6°C 45.8°F7.7°C 51% Calm Calm -- 30.07 in1018.3 mb 0.00 in0.0 mm 0.00 in0.0 mm 0.00 in0.0 mm
12:11 AM 52.8°F11.6°C 45.5°F7.5°C 51% 0.4 mph NNW0.6 kmh NNW 0.4 mph0.6 kmh 30.07 in1018.3 mb 0.00 in0.0 mm 0.00 in0.0 mm 0.00 in0.0 mm
12:14 AM 52.3°F11.3°C 45.5°F7.5°C 51% Calm Calm -- 30.07 in1018.3 mb 0.00 in0.0 mm 0.00 in0.0 mm 0.00 in0.0 mm
12:17 AM 52.6°F11.4°C 45.5°F7.5°C 52% Calm Calm -- 30.07 in1018.3 mb 0.00 in0.0 mm 0.00 in0.0 mm 0.00 in0.0 mm
12:20 AM 52.3°F11.3°C 45.3°F7.4°C 52% Calm Calm -- 30.07 in1018.3 mb 0.00 in0.0 mm 0.00 in0.0 mm 0.00 in0.0 mm
12:23 AM 51.9°F11.1°C 45.7°F7.6°C 52% Calm Calm -- 30.07 in1018.3 mb 0.00 in0.0 mm 0.00 in0.0 mm 0.00 in0.0 mm
12:26 AM 51.4°F10.8°C 45.7°F7.6°C 52% Calm Calm -- 30.07 in1018.3 mb 0.00 in0.0 mm 0.00 in0.0 mm 0.00 in0.0 mm
12:29 AM 51.1°F10.6°C 45.4°F7.4°C 52% 0.4 mph NNW0.6 kmh NNW 0.4 mph0.6 kmh 30.07 in1018.3 mb 0.00 in0.0 mm 0.00 in0.0 mm 0.00 in0.0 mm
12:32 AM 50.9°F10.5°C 45.4°F7.4°C 53% Calm Calm -- 30.07 in1018.3 mb 0.00 in0.0 mm 0.00 in0.0 mm 0.00 in0.0 mm
12:35 AM 50.7°F10.4°C 45.3°F7.4°C 53% Calm Calm -- 30.07 in1018.3 mb 0.00 in0.0 mm 0.00 in0.0 mm 0.00 in0.0 mm
12:38 AM 50.2°F10.1°C 45.5°F7.5°C 54% Calm Calm -- 30.07 in1018.3 mb 0.00 in0.0 mm 0.00 in0.0 mm 0.00 in0.0 mm
12:41 AM 49.7°F9.8°C 45.4°F7.4°C 54% 0.4 mph SE0.6 kmh SE 0.4 mph0.6 kmh 30.07 in1018.3 mb 0.00 in0.0 mm 0.00 in0.0 mm 0.00 in0.0 mm
12:44 AM 49.7°F9.8°C 45.5°F7.5°C 54% Calm Calm -- 30.06 in1017.9 mb 0.00 in0.0 mm 0.00 in0.0 mm 0.00 in0.0 mm
12:47 AM 49.4°F9.7°C 45.3°F7.4°C 54% Calm Calm -- 30.07 in1018.3 mb 0.00 in0.0 mm 0.00 in0.0 mm 0.00 in0.0 mm
12:50 AM 49.0°F9.4°C 45.4°F7.4°C 55% 0.4 mph ESE0.6 kmh ESE 0.4 mph0.6 kmh 30.06 in1017.9 mb 0.00 in0.0 mm 0.00 in0.0 mm 0.00 in0.0 mm
12:53 AM 48.8°F9.3°C 45.5°F7.5°C 55% Calm Calm -- 30.07 in1018.3 mb 0.00 in0.0 mm 0.00 in0.0 mm 0.00 in0.0 mm
12:56 AM 48.8°F9.3°C 45.5°F7.5°C 55% Calm Calm -- 30.06 in1017.9 mb 0.00 in0.0 mm 0.00 in0.0 mm 0.00 in0.0 mm
12:59 AM 48.3°F9.1°C 45.3°F7.4°C 55% Calm Calm -- 30.06 in1017.9 mb 0.00 in0.0 mm 0.00 in0.0 mm 0.00 in0.0 mm
01:02 AM 48.9°F9.4°C 45.2°F7.3°C 56% Calm Calm -- 30.06 in1017.9 mb 0.00 in0.0 mm 0.00 in0.0 mm 0.00 in0.0 mm
01:05 AM 48.2°F9.0°C 45.2°F7.3°C 56% Calm Calm -- 30.07 in1018.3 mb 0.00 in0.0 mm 0.00 in0.0 mm 0.00 in0.0 mm
01:08 AM 47.5°F8.6°C 45.2°F7.3°C 56% Calm Calm -- 30.06 in1017.9 mb 0.00 in0.0 mm 0.00 in0.0 mm 0.00 in0.0 mm
01:11 AM 47.4°F8.6°C 45.2°F7.3°C 57% Calm Calm -- 30.06 in1017.9 mb 0.00 in0.0 mm 0.00 in0.0 mm 0.00 in0.0 mm
01:14 AM 46.9°F8.3°C 45.2°F7.3°C 58% 0.8 mph ESE1.3 kmh ESE 0.8 mph1.3 kmh 30.06 in1017.9 mb 0.00 in0.0 mm 0.00 in0.0 mm 0.00 in0.0 mm
01:17 AM 46.6°F8.1°C 45.0°F7.2°C 57% Calm Calm -- 30.05 in1017.6 mb 0.00 in0.0 mm 0.00 in0.0 mm 0.00 in0.0 mm
01:20 AM 46.4°F8.0°C 44.9°F7.2°C 58% Calm Calm -- 30.05 in1017.6 mb 0.00 in0.0 mm 0.00 in0.0 mm 0.00 in0.0 mm
01:23 AM 46.2°F7.9°C 44.8°F7.1°C 58% Calm Calm -- 30.06 in1017.9 mb 0.00 in0.0 mm 0.00 in0.0 mm 0.00 in0.0 mm
01:26 AM 46.0°F7.8°C 44.8°F7.1°C 58% Calm Calm -- 30.05 in1017.6 mb 0.00 in0.0 mm 0.00 in0.0 mm 0.00 in0.0 mm
01:29 AM 46.5°F8.1°C 44.8°F7.1°C 59% Calm Calm -- 30.05 in1017.6 mb 0.00 in0.0 mm 0.00 in0.0 mm 0.00 in0.0 mm
01:32 AM 46.9°F8.3°C 45.0°F7.2°C 60% Calm Calm -- 30.05 in1017.6 mb 0.00 in0.0 mm 0.00 in0.0 mm 0.00 in0.0 mm
01:35 AM 47.0°F8.3°C 45.0°F7.2°C 60% Calm Calm -- 30.05 in1017.6 mb 0.00 in0.0 mm 0.00 in0.0 mm 0.00 in0.0 mm
01:38 AM 46.5°F8.1°C 44.7°F7.1°C 60% Calm Calm -- 30.05 in1017.6 mb 0.00 in0.0 mm 0.00 in0.0 mm 0.00 in0.0 mm
01:41 AM 46.1°F7.8°C 44.8°F7.1°C 60% Calm Calm -- 30.05 in1017.6 mb 0.00 in0.0 mm 0.00 in0.0 mm 0.00 in0.0 mm
01:44 AM 46.2°F7.9°C 44.9°F7.2°C 60% Calm Calm -- 30.05 in1017.6 mb 0.00 in0.0 mm 0.00 in0.0 mm 0.00 in0.0 mm
01:47 AM 45.6°F7.6°C 44.6°F7.0°C 60% Calm Calm -- 30.05 in1017.6 mb 0.00 in0.0 mm 0.00 in0.0 mm 0.00 in0.0 mm
01:50 AM 45.7°F7.6°C 44.3°F6.8°C 59% Calm Calm -- 30.05 in1017.6 mb 0.00 in0.0 mm 0.00 in0.0 mm 0.00 in0.0 mm
01:53 AM 45.2°F7.3°C 44.0°F6.7°C 59% Calm Calm -- 30.04 in1017.3 mb 0.00 in0.0 mm 0.00 in0.0 mm 0.00 in0.0 mm
01:56 AM 45.4°F7.4°C 44.1°F6.7°C 60% Calm Calm -- 30.04 in1017.3 mb 0.00 in0.0 mm 0.00 in0.0 mm 0.00 in0.0 mm
01:59 AM 45.1°F7.3°C 44.4°F6.9°C 60% Calm Calm -- 30.05 in1017.6 mb 0.00 in0.0 mm 0.00 in0.0 mm 0.00 in0.0 mm
02:02 AM 45.2°F7.3°C 44.1°F6.7°C 60% Calm Calm -- 30.05 in1017.6 mb 0.00 in0.0 mm 0.00 in0.0 mm 0.00 in0.0 mm
02:05 AM 45.4°F7.4°C 44.1°F6.7°C 60% Calm Calm -- 30.05 in1017.6 mb 0.00 in0.0 mm 0.00 in0.0 mm 0.00 in0.0 mm
02:08 AM 45.3°F7.4°C 44.0°F6.7°C 61% Calm Calm -- 30.05 in1017.6 mb 0.00 in0.0 mm 0.00 in0.0 mm 0.00 in0.0 mm
02:11 AM 44.9°F7.2°C 44.3°F6.8°C 61% Calm Calm -- 30.05 in1017.6 mb 0.00 in0.0 mm 0.00 in0.0 mm 0.00 in0.0 mm
02:14 AM 44.5°F6.9°C 44.1°F6.7°C 61% Calm Calm -- 30.04 in1017.3 mb 0.00 in0.0 mm 0.00 in0.0 mm 0.00 in0.0 mm
02:17 AM 44.7°F7.1°C 43.8°F6.6°C 61% Calm Calm -- 30.04 in1017.3 mb 0.00 in0.0 mm 0.00 in0.0 mm 0.00 in0.0 mm
02:20 AM 44.6°F7.0°C 43.9°F6.6°C 61% Calm Calm -- 30.05 in1017.6 mb 0.00 in0.0 mm 0.00 in0.0 mm 0.00 in0.0 mm
02:23 AM 44.3°F6.8°C 44.0°F6.7°C 62% Calm Calm -- 30.04 in1017.3 mb 0.00 in0.0 mm 0.00 in0.0 mm 0.00 in0.0 mm
02:26 AM 44.0°F6.7°C 43.6°F6.4°C 61% Calm Calm -- 30.04 in1017.3 mb 0.00 in0.0 mm 0.00 in0.0 mm 0.00 in0.0 mm
02:29 AM 43.8°F6.6°C 43.5°F6.4°C 61% Calm Calm -- 30.04 in1017.3 mb 0.00 in0.0 mm 0.00 in0.0 mm 0.00 in0.0 mm
02:32 AM 43.8°F6.6°C 43.8°F6.6°C 62% Calm Calm -- 30.04 in1017.3 mb 0.00 in0.0 mm 0.00 in0.0 mm 0.00 in0.0 mm
02:35 AM 43.9°F6.6°C 43.6°F6.4°C 62% Calm Calm -- 30.04 in1017.3 mb 0.00 in0.0 mm 0.00 in0.0 mm 0.00 in0.0 mm
02:38 AM 44.6°F7.0°C 43.4°F6.3°C 61% Calm Calm -- 30.03 in1016.9 mb 0.00 in0.0 mm 0.00 in0.0 mm 0.00 in0.0 mm
02:47 AM 43.6°F6.4°C 43.4°F6.3°C 62% Calm Calm -- 30.03 in1016.9 mb 0.00 in0.0 mm 0.00 in0.0 mm 0.00 in0.0 mm
02:50 AM 44.0°F6.7°C 43.1°F6.2°C 62% Calm Calm -- 30.03 in1016.9 mb 0.00 in0.0 mm 0.00 in0.0 mm 0.00 in0.0 mm
02:53 AM 43.5°F6.4°C 43.2°F6.2°C 62% Calm Calm -- 30.03 in1016.9 mb 0.00 in0.0 mm 0.00 in0.0 mm 0.00 in0.0 mm
02:56 AM 43.6°F6.4°C 43.1°F6.2°C 62% Calm Calm -- 30.03 in1016.9 mb 0.00 in0.0 mm 0.00 in0.0 mm 0.00 in0.0 mm
02:59 AM 43.4°F6.3°C 42.9°F6.1°C 62% Calm Calm -- 30.03 in1016.9 mb 0.00 in0.0 mm 0.00 in0.0 mm 0.00 in0.0 mm
03:02 AM 43.9°F6.6°C 43.3°F6.3°C 63% Calm Calm -- 30.03 in1016.9 mb 0.00 in0.0 mm 0.00 in0.0 mm 0.00 in0.0 mm
03:05 AM 44.2°F6.8°C 42.9°F6.1°C 62% Calm Calm -- 30.03 in1016.9 mb 0.00 in0.0 mm 0.00 in0.0 mm 0.00 in0.0 mm
03:08 AM 43.9°F6.6°C 43.0°F6.1°C 62% Calm Calm -- 30.03 in1016.9 mb 0.00 in0.0 mm 0.00 in0.0 mm 0.00 in0.0 mm
03:11 AM 44.2°F6.8°C 42.8°F6.0°C 62% Calm Calm -- 30.03 in1016.9 mb 0.00 in0.0 mm 0.00 in0.0 mm 0.00 in0.0 mm
03:14 AM 44.7°F7.1°C 42.6°F5.9°C 62% Calm Calm -- 30.03 in1016.9 mb 0.00 in0.0 mm 0.00 in0.0 mm 0.00 in0.0 mm
03:17 AM 44.5°F6.9°C 42.6°F5.9°C 62% Calm Calm -- 30.03 in1016.9 mb 0.00 in0.0 mm 0.00 in0.0 mm 0.00 in0.0 mm
03:20 AM 44.3°F6.8°C 42.7°F5.9°C 62% Calm Calm -- 30.03 in1016.9 mb 0.00 in0.0 mm 0.00 in0.0 mm 0.00 in0.0 mm
03:23 AM 44.5°F6.9°C 42.5°F5.8°C 62% Calm Calm -- 30.03 in1016.9 mb 0.00 in0.0 mm 0.00 in0.0 mm 0.00 in0.0 mm
03:26 AM 44.3°F6.8°C 42.7°F5.9°C 62% 1.2 mph NNW1.9 kmh NNW 1.2 mph1.9 kmh 30.03 in1016.9 mb 0.00 in0.0 mm 0.00 in0.0 mm 0.00 in0.0 mm
03:29 AM 43.9°F6.6°C 42.6°F5.9°C 62% 2.0 mph ESE3.2 kmh ESE 2.0 mph3.2 kmh 30.03 in1016.9 mb 0.00 in0.0 mm 0.00 in0.0 mm 0.00 in0.0 mm
03:35 AM 43.8°F6.6°C 42.7°F5.9°C 63% 1.2 mph SE1.9 kmh SE 1.2 mph1.9 kmh 30.03 in1016.9 mb 0.00 in0.0 mm 0.00 in0.0 mm 0.00 in0.0 mm
03:38 AM 43.7°F6.5°C 42.6°F5.9°C 63% Calm Calm -- 30.03 in1016.9 mb 0.00 in0.0 mm 0.00 in0.0 mm 0.00 in0.0 mm
03:41 AM 43.8°F6.6°C 42.4°F5.8°C 63% Calm Calm -- 30.03 in1016.9 mb 0.00 in0.0 mm 0.00 in0.0 mm 0.00 in0.0 mm
03:47 AM 45.3°F7.4°C 42.6°F5.9°C 63% 1.2 mph SE1.9 kmh SE 1.2 mph1.9 kmh 30.03 in1016.9 mb 0.00 in0.0 mm 0.00 in0.0 mm 0.00 in0.0 mm
03:50 AM 44.5°F6.9°C 42.7°F5.9°C 63% 3.2 mph NNW5.1 kmh NNW 3.3 mph5.3 kmh 30.03 in1016.9 mb 0.00 in0.0 mm 0.00 in0.0 mm 0.00 in0.0 mm
03:53 AM 45.4°F7.4°C 42.9°F6.1°C 64% 4.8 mph SE7.7 kmh SE 4.8 mph7.7 kmh 30.03 in1016.9 mb 0.00 in0.0 mm 0.00 in0.0 mm 0.00 in0.0 mm
03:56 AM 45.5°F7.5°C 43.2°F6.2°C 64% 2.4 mph SE3.9 kmh SE 2.4 mph3.9 kmh 30.03 in1016.9 mb 0.00 in0.0 mm 0.00 in0.0 mm 0.00 in0.0 mm
04:02 AM 46.5°F8.1°C 43.4°F6.3°C 64% 1.2 mph NNW1.9 kmh NNW 1.2 mph1.9 kmh 30.03 in1016.9 mb 0.00 in0.0 mm 0.00 in0.0 mm 0.00 in0.0 mm
04:05 AM 46.5°F8.1°C 43.1°F6.2°C 63% Calm Calm -- 30.03 in1016.9 mb 0.00 in0.0 mm 0.00 in0.0 mm 0.00 in0.0 mm
04:08 AM 45.8°F7.7°C 43.1°F6.2°C 63% 0.8 mph S1.3 kmh S 0.8 mph1.3 kmh 30.03 in1016.9 mb 0.00 in0.0 mm 0.00 in0.0 mm 0.00 in0.0 mm
04:11 AM 46.0°F7.8°C 42.9°F6.1°C 63% Calm Calm -- 30.03 in1016.9 mb 0.00 in0.0 mm 0.00 in0.0 mm 0.00 in0.0 mm
04:14 AM 46.3°F7.9°C 42.9°F6.1°C 63% 1.2 mph NNW1.9 kmh NNW 1.2 mph1.9 kmh 30.03 in1016.9 mb 0.00 in0.0 mm 0.00 in0.0 mm 0.00 in0.0 mm
04:17 AM 45.7°F7.6°C 43.1°F6.2°C 63% Calm Calm -- 30.03 in1016.9 mb 0.00 in0.0 mm 0.00 in0.0 mm 0.00 in0.0 mm
04:20 AM 46.3°F7.9°C 43.2°F6.2°C 64% Calm Calm -- 30.03 in1016.9 mb 0.00 in0.0 mm 0.00 in0.0 mm 0.00 in0.0 mm
04:23 AM 46.3°F7.9°C 43.2°F6.2°C 64% Calm Calm -- 30.03 in1016.9 mb 0.00 in0.0 mm 0.00 in0.0 mm 0.00 in0.0 mm
04:26 AM 45.3°F7.4°C 43.2°F6.2°C 64% Calm Calm -- 30.04 in1017.3 mb 0.00 in0.0 mm 0.00 in0.0 mm 0.00 in0.0 mm
04:29 AM 45.2°F7.3°C 42.8°F6.0°C 64% Calm Calm -- 30.03 in1016.9 mb 0.00 in0.0 mm 0.00 in0.0 mm 0.00 in0.0 mm
04:32 AM 45.2°F7.3°C 43.3°F6.3°C 64% Calm Calm -- 30.03 in1016.9 mb 0.00 in0.0 mm 0.00 in0.0 mm 0.00 in0.0 mm
04:35 AM 44.8°F7.1°C 43.0°F6.1°C 64% Calm Calm -- 30.04 in1017.3 mb 0.00 in0.0 mm 0.00 in0.0 mm 0.00 in0.0 mm
04:38 AM 45.2°F7.3°C 43.1°F6.2°C 64% Calm Calm -- 30.04 in1017.3 mb 0.00 in0.0 mm 0.00 in0.0 mm 0.00 in0.0 mm
04:41 AM 44.6°F7.0°C 42.9°F6.1°C 64% Calm Calm -- 30.03 in1016.9 mb 0.00 in0.0 mm 0.00 in0.0 mm 0.00 in0.0 mm
04:44 AM 44.3°F6.8°C 42.9°F6.1°C 64% Calm Calm -- 30.03 in1016.9 mb 0.00 in0.0 mm 0.00 in0.0 mm 0.00 in0.0 mm
04:47 AM 44.3°F6.8°C 42.7°F5.9°C 65% Calm Calm -- 30.03 in1016.9 mb 0.00 in0.0 mm 0.00 in0.0 mm 0.00 in0.0 mm
04:50 AM 44.3°F6.8°C 42.9°F6.1°C 65% Calm Calm -- 30.03 in1016.9 mb 0.00 in0.0 mm 0.00 in0.0 mm 0.00 in0.0 mm
04:53 AM 44.4°F6.9°C 43.1°F6.2°C 65% Calm Calm -- 30.03 in1016.9 mb 0.00 in0.0 mm 0.00 in0.0 mm 0.00 in0.0 mm
04:56 AM 44.0°F6.7°C 43.0°F6.1°C 65% Calm Calm -- 30.03 in1016.9 mb 0.00 in0.0 mm 0.00 in0.0 mm 0.00 in0.0 mm
04:59 AM 44.3°F6.8°C 43.1°F6.2°C 65% Calm Calm -- 30.03 in1016.9 mb 0.00 in0.0 mm 0.00 in0.0 mm 0.00 in0.0 mm
05:02 AM 44.2°F6.8°C 43.1°F6.2°C 64% Calm Calm -- 30.03 in1016.9 mb 0.00 in0.0 mm 0.00 in0.0 mm 0.00 in0.0 mm
05:05 AM 44.3°F6.8°C 43.7°F6.5°C 65% Calm Calm -- 30.03 in1016.9 mb 0.00 in0.0 mm 0.00 in0.0 mm 0.00 in0.0 mm
05:08 AM 44.8°F7.1°C 44.0°F6.7°C 64% Calm Calm -- 30.03 in1016.9 mb 0.00 in0.0 mm 0.00 in0.0 mm 0.00 in0.0 mm
05:11 AM 46.0°F7.8°C 44.7°F7.1°C 64% Calm Calm -- 30.03 in1016.9 mb 0.00 in0.0 mm 0.00 in0.0 mm 0.00 in0.0 mm
05:14 AM 46.3°F7.9°C 45.3°F7.4°C 64% Calm Calm -- 30.03 in1016.9 mb 0.00 in0.0 mm 0.00 in0.0 mm 0.00 in0.0 mm
05:17 AM 47.0°F8.3°C 45.4°F7.4°C 62% Calm Calm -- 30.03 in1016.9 mb 0.00 in0.0 mm 0.00 in0.0 mm 0.00 in0.0 mm
05:20 AM 47.2°F8.4°C 45.4°F7.4°C 60% Calm Calm -- 30.03 in1016.9 mb 0.00 in0.0 mm 0.00 in0.0 mm 0.00 in0.0 mm
05:23 AM 48.1°F8.9°C 46.2°F7.9°C 59% Calm Calm -- 30.03 in1016.9 mb 0.00 in0.0 mm 0.00 in0.0 mm 0.00 in0.0 mm
05:26 AM 48.8°F9.3°C 46.1°F7.8°C 57% Calm Calm -- 30.03 in1016.9 mb 0.00 in0.0 mm 0.00 in0.0 mm 0.00 in0.0 mm
05:29 AM 49.3°F9.6°C 46.5°F8.1°C 56% Calm Calm -- 30.03 in1016.9 mb 0.00 in0.0 mm 0.00 in0.0 mm 0.00 in0.0 mm
05:32 AM 49.8°F9.9°C 46.9°F8.3°C 55% Calm Calm -- 30.03 in1016.9 mb 0.00 in0.0 mm 0.00 in0.0 mm 0.00 in0.0 mm
05:35 AM 50.6°F10.3°C 47.1°F8.4°C 54% Calm Calm -- 30.03 in1016.9 mb 0.00 in0.0 mm 0.00 in0.0 mm 0.00 in0.0 mm
05:38 AM 52.0°F11.1°C 47.1°F8.4°C 52% Calm Calm -- 30.03 in1016.9 mb 0.00 in0.0 mm 0.00 in0.0 mm 0.00 in0.0 mm
05:41 AM 52.8°F11.6°C 47.3°F8.5°C 51% Calm Calm -- 30.03 in1016.9 mb 0.00 in0.0 mm 0.00 in0.0 mm 0.00 in0.0 mm
05:44 AM 53.8°F12.1°C 47.7°F8.7°C 50% Calm Calm -- 30.03 in1016.9 mb 0.00 in0.0 mm 0.00 in0.0 mm 0.00 in0.0 mm
05:47 AM 54.5°F12.5°C 47.9°F8.8°C 50% Calm Calm -- 30.03 in1016.9 mb 0.00 in0.0 mm 0.00 in0.0 mm 0.00 in0.0 mm
05:50 AM 55.7°F13.2°C 48.5°F9.2°C 49% Calm Calm -- 30.03 in1016.9 mb 0.00 in0.0 mm 0.00 in0.0 mm 0.00 in0.0 mm
05:53 AM 58.2°F14.6°C 48.4°F9.1°C 48% Calm Calm -- 30.03 in1016.9 mb 0.00 in0.0 mm 0.00 in0.0 mm 0.00 in0.0 mm
05:56 AM 59.2°F15.1°C 48.1°F8.9°C 46% Calm Calm -- 30.03 in1016.9 mb 0.00 in0.0 mm 0.00 in0.0 mm 0.00 in0.0 mm
05:59 AM 59.6°F15.3°C 49.0°F9.4°C 46% Calm Calm -- 30.03 in1016.9 mb 0.00 in0.0 mm 0.00 in0.0 mm 0.00 in0.0 mm
06:02 AM 59.5°F15.3°C 49.4°F9.7°C 46% 1.6 mph SW2.6 kmh SW 1.6 mph2.6 kmh 30.03 in1016.9 mb 0.00 in0.0 mm 0.00 in0.0 mm 0.00 in0.0 mm
06:05 AM 60.8°F16.0°C 49.5°F9.7°C 45% 0.8 mph SW1.3 kmh SW 0.8 mph1.3 kmh 30.03 in1016.9 mb 0.00 in0.0 mm 0.00 in0.0 mm 0.00 in0.0 mm
06:08 AM 62.6°F17.0°C 49.4°F9.7°C 44% Calm Calm -- 30.03 in1016.9 mb 0.00 in0.0 mm 0.00 in0.0 mm 0.00 in0.0 mm
06:11 AM 61.3°F16.3°C 50.7°F10.4°C 45% Calm Calm -- 30.03 in1016.9 mb 0.00 in0.0 mm 0.00 in0.0 mm 0.00 in0.0 mm
06:14 AM 63.2°F17.3°C 49.8°F9.9°C 43% 0.8 mph SW1.3 kmh SW 0.8 mph1.3 kmh 30.03 in1016.9 mb 0.00 in0.0 mm 0.00 in0.0 mm 0.00 in0.0 mm
06:17 AM 63.7°F17.6°C 50.5°F10.3°C 43% 0.8 mph NNW1.3 kmh NNW 0.8 mph1.3 kmh 30.03 in1016.9 mb 0.00 in0.0 mm 0.00 in0.0 mm 0.00 in0.0 mm
06:20 AM 63.4°F17.4°C 49.7°F9.8°C 41% 0.4 mph SW0.6 kmh SW 0.4 mph0.6 kmh 30.03 in1016.9 mb 0.00 in0.0 mm 0.00 in0.0 mm 0.00 in0.0 mm
06:23 AM 64.3°F17.9°C 50.5°F10.3°C 42% Calm Calm -- 30.03 in1016.9 mb 0.00 in0.0 mm 0.00 in0.0 mm 0.00 in0.0 mm
06:26 AM 66.0°F18.9°C 50.7°F10.4°C 41% 0.8 mph SW1.3 kmh SW 0.8 mph1.3 kmh 30.03 in1016.9 mb 0.00 in0.0 mm 0.00 in0.0 mm 0.00 in0.0 mm
06:29 AM 66.1°F18.9°C 50.8°F10.4°C 41% Calm Calm -- 30.03 in1016.9 mb 0.00 in0.0 mm 0.00 in0.0 mm 0.00 in0.0 mm
06:32 AM 66.0°F18.9°C 50.7°F10.4°C 40% 0.4 mph SW0.6 kmh SW 0.4 mph0.6 kmh 30.03 in1016.9 mb 0.00 in0.0 mm 0.00 in0.0 mm 0.00 in0.0 mm
06:35 AM 67.1°F19.5°C 51.1°F10.6°C 40% Calm Calm -- 30.03 in1016.9 mb 0.00 in0.0 mm 0.00 in0.0 mm 0.00 in0.0 mm
06:38 AM 68.0°F20.0°C 51.8°F11.0°C 40% 0.4 mph SW0.6 kmh SW 0.4 mph0.6 kmh 30.03 in1016.9 mb 0.00 in0.0 mm 0.00 in0.0 mm 0.00 in0.0 mm
06:41 AM 68.3°F20.2°C 51.5°F10.8°C 39% Calm Calm -- 30.03 in1016.9 mb 0.00 in0.0 mm 0.00 in0.0 mm 0.00 in0.0 mm
06:44 AM 68.8°F20.4°C 52.3°F11.3°C 40% 0.8 mph NNW1.3 kmh NNW 0.8 mph1.3 kmh 30.03 in1016.9 mb 0.00 in0.0 mm 0.00 in0.0 mm 0.00 in0.0 mm
06:47 AM 68.3°F20.2°C 51.6°F10.9°C 38% 0.4 mph SE0.6 kmh SE 0.4 mph0.6 kmh 30.03 in1016.9 mb 0.00 in0.0 mm 0.00 in0.0 mm 0.00 in0.0 mm
06:50 AM 69.5°F20.8°C 50.6°F10.3°C 36% Calm Calm -- 30.03 in1016.9 mb 0.00 in0.0 mm 0.00 in0.0 mm 0.00 in0.0 mm
06:53 AM 70.0°F21.1°C 51.6°F10.9°C 37% 1.6 mph NNW2.6 kmh NNW 1.6 mph2.6 kmh 30.03 in1016.9 mb 0.00 in0.0 mm 0.00 in0.0 mm 0.00 in0.0 mm
06:56 AM 68.8°F20.4°C 49.9°F9.9°C 35% 1.6 mph SE2.6 kmh SE 1.6 mph2.6 kmh 30.04 in1017.3 mb 0.00 in0.0 mm 0.00 in0.0 mm 0.00 in0.0 mm
06:59 AM 67.7°F19.8°C 49.3°F9.6°C 34% 1.2 mph SSE1.9 kmh SSE 1.2 mph1.9 kmh 30.03 in1016.9 mb 0.00 in0.0 mm 0.00 in0.0 mm 0.00 in0.0 mm
07:02 AM 70.0°F21.1°C 50.1°F10.1°C 36% 3.6 mph ESE5.8 kmh ESE 3.7 mph6.0 kmh 30.03 in1016.9 mb 0.00 in0.0 mm 0.00 in0.0 mm 0.00 in0.0 mm
07:05 AM 69.8°F21.0°C 50.5°F10.3°C 36% 0.8 mph SE1.3 kmh SE 0.8 mph1.3 kmh 30.03 in1016.9 mb 0.00 in0.0 mm 0.00 in0.0 mm 0.00 in0.0 mm
07:08 AM 70.3°F21.3°C 50.2°F10.1°C 35% 2.0 mph SE3.2 kmh SE 2.0 mph3.2 kmh 30.03 in1016.9 mb 0.00 in0.0 mm 0.00 in0.0 mm 0.00 in0.0 mm
07:11 AM 70.0°F21.1°C 49.9°F9.9°C 35% 1.6 mph SE2.6 kmh SE 1.6 mph2.6 kmh 30.03 in1016.9 mb 0.00 in0.0 mm 0.00 in0.0 mm 0.00 in0.0 mm
07:14 AM 68.7°F20.4°C 48.8°F9.3°C 34% 2.0 mph SE3.2 kmh SE 2.0 mph3.2 kmh 30.03 in1016.9 mb 0.00 in0.0 mm 0.00 in0.0 mm 0.00 in0.0 mm
07:17 AM 69.1°F20.6°C 50.0°F10.0°C 36% 2.4 mph NNW3.9 kmh NNW 2.4 mph3.9 kmh 30.03 in1016.9 mb 0.00 in0.0 mm 0.00 in0.0 mm 0.00 in0.0 mm
07:20 AM 68.6°F20.3°C 49.3°F9.6°C 35% 3.2 mph SE5.1 kmh SE 3.3 mph5.3 kmh 30.03 in1016.9 mb 0.00 in0.0 mm 0.00 in0.0 mm 0.00 in0.0 mm
07:23 AM 68.1°F20.1°C 48.8°F9.3°C 35% 1.2 mph SE1.9 kmh SE 1.2 mph1.9 kmh 30.03 in1016.9 mb 0.00 in0.0 mm 0.00 in0.0 mm 0.00 in0.0 mm
07:26 AM 69.4°F20.8°C 49.5°F9.7°C 37% 2.4 mph SE3.9 kmh SE 2.4 mph3.9 kmh 30.03 in1016.9 mb 0.00 in0.0 mm 0.00 in0.0 mm 0.00 in0.0 mm
07:29 AM 68.5°F20.3°C 48.5°F9.2°C 36% 4.0 mph SE6.4 kmh SE 4.0 mph6.4 kmh 30.03 in1016.9 mb 0.00 in0.0 mm 0.00 in0.0 mm 0.00 in0.0 mm
07:32 AM 67.7°F19.8°C 48.6°F9.2°C 36% 1.2 mph NNW1.9 kmh NNW 1.2 mph1.9 kmh 30.03 in1016.9 mb 0.00 in0.0 mm 0.00 in0.0 mm 0.00 in0.0 mm
07:35 AM 68.2°F20.1°C 48.1°F8.9°C 36% 0.8 mph SSE1.3 kmh SSE 0.8 mph1.3 kmh 30.03 in1016.9 mb 0.00 in0.0 mm 0.00 in0.0 mm 0.00 in0.0 mm
07:38 AM 67.7°F19.8°C 47.4°F8.6°C 35% 4.4 mph NNW7.1 kmh NNW 4.4 mph7.1 kmh 30.03 in1016.9 mb 0.00 in0.0 mm 0.00 in0.0 mm 0.00 in0.0 mm
07:41 AM 67.7°F19.8°C 47.8°F8.8°C 37% 5.9 mph ESE9.5 kmh ESE 6.0 mph9.7 kmh 30.03 in1016.9 mb 0.00 in0.0 mm 0.00 in0.0 mm 0.00 in0.0 mm
07:44 AM 67.4°F19.7°C 47.2°F8.4°C 37% 3.2 mph SE5.1 kmh SE 3.2 mph5.1 kmh 30.03 in1016.9 mb 0.00 in0.0 mm 0.00 in0.0 mm 0.00 in0.0 mm
07:47 AM 67.1°F19.5°C 46.9°F8.3°C 37% 1.6 mph NNW2.6 kmh NNW 1.6 mph2.6 kmh 30.03 in1016.9 mb 0.00 in0.0 mm 0.00 in0.0 mm 0.00 in0.0 mm
07:50 AM 67.3°F19.6°C 48.3°F9.1°C 38% 5.3 mph SE8.5 kmh SE 5.3 mph8.5 kmh 30.03 in1016.9 mb 0.00 in0.0 mm 0.00 in0.0 mm 0.00 in0.0 mm
07:53 AM 66.5°F19.2°C 46.7°F8.2°C 37% 3.2 mph SE5.1 kmh SE 3.3 mph5.3 kmh 30.03 in1016.9 mb 0.00 in0.0 mm 0.00 in0.0 mm 0.00 in0.0 mm
07:56 AM 67.1°F19.5°C 47.1°F8.4°C 38% 1.6 mph SE2.6 kmh SE 1.6 mph2.6 kmh 30.03 in1016.9 mb 0.00 in0.0 mm 0.00 in0.0 mm 0.00 in0.0 mm
07:59 AM 67.4°F19.7°C 47.2°F8.4°C 38% 2.8 mph ESE4.5 kmh ESE 2.8 mph4.5 kmh 30.03 in1016.9 mb 0.00 in0.0 mm 0.00 in0.0 mm 0.00 in0.0 mm
08:02 AM 67.2°F19.6°C 47.4°F8.6°C 38% 3.2 mph NNW5.1 kmh NNW 3.3 mph5.3 kmh 30.03 in1016.9 mb 0.00 in0.0 mm 0.00 in0.0 mm 0.00 in0.0 mm
08:05 AM 66.9°F19.4°C 47.0°F8.3°C 38% 4.4 mph NNW7.1 kmh NNW 4.5 mph7.2 kmh 30.03 in1016.9 mb 0.00 in0.0 mm 0.00 in0.0 mm 0.00 in0.0 mm
08:08 AM 66.4°F19.1°C 48.1°F8.9°C 39% 7.9 mph NNW12.7 kmh NNW 8.0 mph12.9 kmh 30.03 in1016.9 mb 0.00 in0.0 mm 0.00 in0.0 mm 0.00 in0.0 mm
08:14 AM 66.0°F18.9°C 47.0°F8.3°C 39% 2.8 mph NNW4.5 kmh NNW 2.8 mph4.5 kmh 30.03 in1016.9 mb 0.00 in0.0 mm 0.00 in0.0 mm 0.00 in0.0 mm
08:17 AM 65.2°F18.4°C 46.3°F7.9°C 38% 2.8 mph SSE4.5 kmh SSE 2.9 mph4.7 kmh 30.03 in1016.9 mb 0.00 in0.0 mm 0.00 in0.0 mm 0.00 in0.0 mm
08:20 AM 65.3°F18.5°C 46.0°F7.8°C 39% 4.4 mph SSE7.1 kmh SSE 4.5 mph7.2 kmh 30.03 in1016.9 mb 0.00 in0.0 mm 0.00 in0.0 mm 0.00 in0.0 mm
08:23 AM 65.5°F18.6°C 46.5°F8.1°C 39% 2.8 mph NNW4.5 kmh NNW 2.8 mph4.5 kmh 30.03 in1016.9 mb 0.00 in0.0 mm 0.00 in0.0 mm 0.00 in0.0 mm
08:26 AM 65.8°F18.8°C 47.2°F8.4°C 40% 2.4 mph SE3.9 kmh SE 2.4 mph3.9 kmh 30.03 in1016.9 mb 0.00 in0.0 mm 0.00 in0.0 mm 0.00 in0.0 mm
08:29 AM 65.4°F18.6°C 46.3°F7.9°C 39% 3.6 mph ESE5.8 kmh ESE 3.7 mph6.0 kmh 30.03 in1016.9 mb 0.00 in0.0 mm 0.00 in0.0 mm 0.00 in0.0 mm
08:32 AM 66.2°F19.0°C 47.2°F8.4°C 40% 4.8 mph SSE7.7 kmh SSE 4.9 mph7.9 kmh 30.03 in1016.9 mb 0.00 in0.0 mm 0.00 in0.0 mm 0.00 in0.0 mm
08:35 AM 65.9°F18.8°C 47.2°F8.4°C 40% 2.4 mph NNW3.9 kmh NNW 2.4 mph3.9 kmh 30.03 in1016.9 mb 0.00 in0.0 mm 0.00 in0.0 mm 0.00 in0.0 mm
08:38 AM 65.2°F18.4°C 46.8°F8.2°C 40% 2.0 mph SSE3.2 kmh SSE 2.0 mph3.2 kmh 30.03 in1016.9 mb 0.00 in0.0 mm 0.00 in0.0 mm 0.00 in0.0 mm
08:41 AM 65.5°F18.6°C 46.5°F8.1°C 40% 6.1 mph ESE9.8 kmh ESE 6.1 mph9.8 kmh 30.03 in1016.9 mb 0.00 in0.0 mm 0.00 in0.0 mm 0.00 in0.0 mm
08:44 AM 65.6°F18.7°C 47.0°F8.3°C 41% 8.1 mph ESE13.0 kmh ESE 8.2 mph13.2 kmh 30.03 in1016.9 mb 0.00 in0.0 mm 0.00 in0.0 mm 0.00 in0.0 mm
08:47 AM 65.6°F18.7°C 46.9°F8.3°C 40% 1.6 mph SSE2.6 kmh SSE 1.6 mph2.6 kmh 30.03 in1016.9 mb 0.00 in0.0 mm 0.00 in0.0 mm 0.00 in0.0 mm
08:50 AM 65.2°F18.4°C 45.9°F7.7°C 39% 3.2 mph SSE5.1 kmh SSE 3.2 mph5.1 kmh 30.03 in1016.9 mb 0.00 in0.0 mm 0.00 in0.0 mm 0.00 in0.0 mm
08:53 AM 66.2°F19.0°C 47.0°F8.3°C 40% 2.8 mph SE4.5 kmh SE 2.8 mph4.5 kmh 30.03 in1016.9 mb 0.00 in0.0 mm 0.00 in0.0 mm 0.00 in0.0 mm
08:56 AM 65.9°F18.8°C 46.8°F8.2°C 40% 10.5 mph ESE16.9 kmh ESE 10.6 mph17.1 kmh 30.03 in1016.9 mb 0.00 in0.0 mm 0.00 in0.0 mm 0.00 in0.0 mm
08:59 AM 66.3°F19.1°C 47.3°F8.5°C 41% 2.0 mph ESE3.2 kmh ESE 2.0 mph3.2 kmh 30.03 in1016.9 mb 0.00 in0.0 mm 0.00 in0.0 mm 0.00 in0.0 mm
09:02 AM 65.9°F18.8°C 46.2°F7.9°C 39% 8.1 mph NNW13.0 kmh NNW 8.1 mph13.0 kmh 30.03 in1016.9 mb 0.00 in0.0 mm 0.00 in0.0 mm 0.00 in0.0 mm
09:05 AM 66.4°F19.1°C 47.3°F8.5°C 40% 1.2 mph NE1.9 kmh NE 1.2 mph1.9 kmh 30.03 in1016.9 mb 0.00 in0.0 mm 0.00 in0.0 mm 0.00 in0.0 mm
09:08 AM 66.0°F18.9°C 46.2°F7.9°C 39% 6.9 mph SE11.1 kmh SE 6.9 mph11.1 kmh 30.03 in1016.9 mb 0.00 in0.0 mm 0.00 in0.0 mm 0.00 in0.0 mm
09:11 AM 66.2°F19.0°C 46.6°F8.1°C 40% 2.8 mph SSE4.5 kmh SSE 2.9 mph4.7 kmh 30.03 in1016.9 mb 0.00 in0.0 mm 0.00 in0.0 mm 0.00 in0.0 mm
09:14 AM 66.7°F19.3°C 47.1°F8.4°C 41% 6.0 mph SE9.7 kmh SE 6.0 mph9.7 kmh 30.03 in1016.9 mb 0.00 in0.0 mm 0.00 in0.0 mm 0.00 in0.0 mm
09:17 AM 66.0°F18.9°C 45.6°F7.6°C 39% 4.0 mph SE6.4 kmh SE 4.1 mph6.6 kmh 30.03 in1016.9 mb 0.00 in0.0 mm 0.00 in0.0 mm 0.00 in0.0 mm
09:20 AM 66.5°F19.2°C 46.7°F8.2°C 40% 4.8 mph NNW7.7 kmh NNW 4.9 mph7.9 kmh 30.03 in1016.9 mb 0.00 in0.0 mm 0.00 in0.0 mm 0.00 in0.0 mm
09:23 AM 66.5°F19.2°C 46.5°F8.1°C 40% 3.6 mph SE5.8 kmh SE 3.7 mph6.0 kmh 30.03 in1016.9 mb 0.00 in0.0 mm 0.00 in0.0 mm 0.00 in0.0 mm
09:26 AM 67.2°F19.6°C 47.3°F8.5°C 41% 4.4 mph SE7.1 kmh SE 4.4 mph7.1 kmh 30.03 in1016.9 mb 0.00 in0.0 mm 0.00 in0.0 mm 0.00 in0.0 mm
09:29 AM 67.3°F19.6°C 47.2°F8.4°C 40% 4.9 mph SE7.9 kmh SE 4.9 mph7.9 kmh 30.03 in1016.9 mb 0.00 in0.0 mm 0.00 in0.0 mm 0.00 in0.0 mm
09:32 AM 67.2°F19.6°C 46.4°F8.0°C 39% 7.3 mph NNW11.7 kmh NNW 7.3 mph11.7 kmh 30.03 in1016.9 mb 0.00 in0.0 mm 0.00 in0.0 mm 0.00 in0.0 mm
09:35 AM 67.6°F19.8°C 47.3°F8.5°C 40% 3.2 mph SE5.1 kmh SE 3.3 mph5.3 kmh 30.03 in1016.9 mb 0.00 in0.0 mm 0.00 in0.0 mm 0.00 in0.0 mm
09:38 AM 68.1°F20.1°C 47.3°F8.5°C 40% 4.4 mph NNW7.1 kmh NNW 4.5 mph7.2 kmh 30.03 in1016.9 mb 0.00 in0.0 mm 0.00 in0.0 mm 0.00 in0.0 mm
09:41 AM 68.5°F20.3°C 46.7°F8.2°C 39% 1.6 mph SE2.6 kmh SE 1.6 mph2.6 kmh 30.03 in1016.9 mb 0.00 in0.0 mm 0.00 in0.0 mm 0.00 in0.0 mm
09:44 AM 68.8°F20.4°C 47.0°F8.3°C 39% 7.1 mph ESE11.4 kmh ESE 7.1 mph11.4 kmh 30.03 in1016.9 mb 0.00 in0.0 mm 0.00 in0.0 mm 0.00 in0.0 mm
09:47 AM 69.5°F20.8°C 48.4°F9.1°C 41% 6.1 mph SE9.8 kmh SE 6.1 mph9.8 kmh 30.03 in1016.9 mb 0.00 in0.0 mm 0.00 in0.0 mm 0.00 in0.0 mm
09:50 AM 68.9°F20.5°C 47.5°F8.6°C 39% 3.2 mph SE5.1 kmh SE 3.2 mph5.1 kmh 30.03 in1016.9 mb 0.00 in0.0 mm 0.00 in0.0 mm 0.00 in0.0 mm
09:53 AM 69.2°F20.7°C 47.5°F8.6°C 39% 4.8 mph SE7.7 kmh SE 4.8 mph7.7 kmh 30.03 in1016.9 mb 0.00 in0.0 mm 0.00 in0.0 mm 0.00 in0.0 mm
09:56 AM 69.0°F20.6°C 47.8°F8.8°C 39% 6.9 mph SE11.1 kmh SE 6.9 mph11.1 kmh 30.03 in1016.9 mb 0.00 in0.0 mm 0.00 in0.0 mm 0.00 in0.0 mm
09:59 AM 69.4°F20.8°C 48.0°F8.9°C 40% 4.0 mph NNW6.4 kmh NNW 4.1 mph6.6 kmh 30.02 in1016.6 mb 0.00 in0.0 mm 0.00 in0.0 mm 0.00 in0.0 mm
10:02 AM 69.6°F20.9°C 47.0°F8.3°C 38% 2.0 mph SSE3.2 kmh SSE 2.0 mph3.2 kmh 30.02 in1016.6 mb 0.00 in0.0 mm 0.00 in0.0 mm 0.00 in0.0 mm
10:05 AM 70.1°F21.2°C 48.1°F8.9°C 39% 2.8 mph SE4.5 kmh SE 2.8 mph4.5 kmh 30.02 in1016.6 mb 0.00 in0.0 mm 0.00 in0.0 mm 0.00 in0.0 mm
10:08 AM 70.3°F21.3°C 48.8°F9.3°C 39% 8.9 mph NNW14.3 kmh NNW 9.0 mph14.5 kmh 30.02 in1016.6 mb 0.00 in0.0 mm 0.00 in0.0 mm 0.00 in0.0 mm
10:11 AM 70.0°F21.1°C 48.4°F9.1°C 38% 4.0 mph NNW6.4 kmh NNW 4.1 mph6.6 kmh 30.02 in1016.6 mb 0.00 in0.0 mm 0.00 in0.0 mm 0.00 in0.0 mm
10:14 AM 70.1°F21.2°C 48.1°F8.9°C 37% 8.5 mph NNW13.7 kmh NNW 8.6 mph13.8 kmh 30.02 in1016.6 mb 0.00 in0.0 mm 0.00 in0.0 mm 0.00 in0.0 mm
10:17 AM 70.4°F21.3°C 49.2°F9.6°C 38% Calm Calm -- 30.02 in1016.6 mb 0.00 in0.0 mm 0.00 in0.0 mm 0.00 in0.0 mm
10:20 AM 70.3°F21.3°C 48.4°F9.1°C 36% 1.6 mph SE2.6 kmh SE 1.6 mph2.6 kmh 30.02 in1016.6 mb 0.00 in0.0 mm 0.00 in0.0 mm 0.00 in0.0 mm
10:23 AM 70.1°F21.2°C 47.8°F8.8°C 35% 4.9 mph SE7.9 kmh SE 4.9 mph7.9 kmh 30.02 in1016.6 mb 0.00 in0.0 mm 0.00 in0.0 mm 0.00 in0.0 mm
10:26 AM 69.5°F20.8°C 47.4°F8.6°C 35% 0.4 mph ESE0.6 kmh ESE 0.4 mph0.6 kmh 30.02 in1016.6 mb 0.00 in0.0 mm 0.00 in0.0 mm 0.00 in0.0 mm
10:29 AM 69.9°F21.1°C 48.1°F8.9°C 36% 2.0 mph SSE3.2 kmh SSE 2.0 mph3.2 kmh 30.02 in1016.6 mb 0.00 in0.0 mm 0.00 in0.0 mm 0.00 in0.0 mm
10:32 AM 70.1°F21.2°C 47.8°F8.8°C 34% 2.4 mph SE3.9 kmh SE 2.4 mph3.9 kmh 30.02 in1016.6 mb 0.00 in0.0 mm 0.00 in0.0 mm 0.00 in0.0 mm
10:35 AM 70.5°F21.4°C 48.2°F9.0°C 35% 8.1 mph SE13.0 kmh SE 8.1 mph13.0 kmh 30.02 in1016.6 mb 0.00 in0.0 mm 0.00 in0.0 mm 0.00 in0.0 mm
10:38 AM 70.0°F21.1°C 47.1°F8.4°C 34% 5.3 mph NNW8.5 kmh NNW 5.3 mph8.5 kmh 30.02 in1016.6 mb 0.00 in0.0 mm 0.00 in0.0 mm 0.00 in0.0 mm
10:41 AM 70.1°F21.2°C 48.6°F9.2°C 35% 8.9 mph ESE14.3 kmh ESE 8.9 mph14.3 kmh 30.02 in1016.6 mb 0.00 in0.0 mm 0.00 in0.0 mm 0.00 in0.0 mm
10:44 AM 70.7°F21.5°C 48.3°F9.1°C 35% 3.2 mph SE5.1 kmh SE 3.3 mph5.3 kmh 30.02 in1016.6 mb 0.00 in0.0 mm 0.00 in0.0 mm 0.00 in0.0 mm
10:47 AM 70.3°F21.3°C 48.7°F9.3°C 36% 2.4 mph SSE3.9 kmh SSE 2.4 mph3.9 kmh 30.02 in1016.6 mb 0.00 in0.0 mm 0.00 in0.0 mm 0.00 in0.0 mm
10:50 AM 70.4°F21.3°C 48.3°F9.1°C 35% 0.4 mph SE0.6 kmh SE 0.4 mph0.6 kmh 30.01 in1016.3 mb 0.00 in0.0 mm 0.00 in0.0 mm 0.00 in0.0 mm
10:53 AM 70.4°F21.3°C 49.6°F9.8°C 35% 7.3 mph NE11.7 kmh NE 7.3 mph11.7 kmh 30.02 in1016.6 mb 0.00 in0.0 mm 0.00 in0.0 mm 0.00 in0.0 mm
10:56 AM 70.1°F21.2°C 49.4°F9.7°C 35% 0.8 mph NE1.3 kmh NE 0.8 mph1.3 kmh 30.02 in1016.6 mb 0.00 in0.0 mm 0.00 in0.0 mm 0.00 in0.0 mm
10:59 AM 70.7°F21.5°C 49.4°F9.7°C 34% 1.2 mph E1.9 kmh E 1.2 mph1.9 kmh 30.02 in1016.6 mb 0.00 in0.0 mm 0.00 in0.0 mm 0.00 in0.0 mm
11:02 AM 71.2°F21.8°C 49.6°F9.8°C 34% 6.0 mph NNW9.7 kmh NNW 6.1 mph9.8 kmh 30.01 in1016.3 mb 0.00 in0.0 mm 0.00 in0.0 mm 0.00 in0.0 mm
11:05 AM 71.8°F22.1°C 49.7°F9.8°C 34% 2.8 mph SE4.5 kmh SE 2.9 mph4.7 kmh 30.02 in1016.6 mb 0.00 in0.0 mm 0.00 in0.0 mm 0.00 in0.0 mm
11:08 AM 71.8°F22.1°C 49.5°F9.7°C 34% 6.4 mph SE10.3 kmh SE 6.4 mph10.3 kmh 30.02 in1016.6 mb 0.00 in0.0 mm 0.00 in0.0 mm 0.00 in0.0 mm
11:11 AM 72.1°F22.3°C 50.2°F10.1°C 36% 9.3 mph NNW15.0 kmh NNW 9.4 mph15.1 kmh 30.01 in1016.3 mb 0.00 in0.0 mm 0.00 in0.0 mm 0.00 in0.0 mm
11:14 AM 72.4°F22.4°C 49.1°F9.5°C 34% 3.2 mph SE5.1 kmh SE 3.3 mph5.3 kmh 30.01 in1016.3 mb 0.00 in0.0 mm 0.00 in0.0 mm 0.00 in0.0 mm
11:17 AM 72.4°F22.4°C 48.5°F9.2°C 33% 3.6 mph NNW5.8 kmh NNW 3.7 mph6.0 kmh 30.02 in1016.6 mb 0.00 in0.0 mm 0.00 in0.0 mm 0.00 in0.0 mm
11:20 AM 72.1°F22.3°C 49.0°F9.4°C 33% 2.4 mph SE3.9 kmh SE 2.4 mph3.9 kmh 30.02 in1016.6 mb 0.00 in0.0 mm 0.00 in0.0 mm 0.00 in0.0 mm
11:23 AM 72.5°F22.5°C 49.1°F9.5°C 33% 6.3 mph ESE10.1 kmh ESE 6.4 mph10.3 kmh 30.01 in1016.3 mb 0.00 in0.0 mm 0.00 in0.0 mm 0.00 in0.0 mm
11:26 AM 73.0°F22.8°C 48.8°F9.3°C 33% 10.5 mph ESE16.9 kmh ESE 10.6 mph17.1 kmh 30.02 in1016.6 mb 0.00 in0.0 mm 0.00 in0.0 mm 0.00 in0.0 mm
11:29 AM 72.1°F22.3°C 50.1°F10.1°C 34% 0.8 mph ESE1.3 kmh ESE 0.8 mph1.3 kmh 30.02 in1016.6 mb 0.00 in0.0 mm 0.00 in0.0 mm 0.00 in0.0 mm
11:32 AM 72.6°F22.6°C 50.2°F10.1°C 34% Calm Calm -- 30.01 in1016.3 mb 0.00 in0.0 mm 0.00 in0.0 mm 0.00 in0.0 mm
11:35 AM 73.1°F22.8°C 50.1°F10.1°C 33% 11.7 mph SE18.8 kmh SE 11.8 mph19.0 kmh 30.02 in1016.6 mb 0.00 in0.0 mm 0.00 in0.0 mm 0.00 in0.0 mm
11:38 AM 72.6°F22.6°C 48.2°F9.0°C 31% 4.9 mph NNW7.9 kmh NNW 4.9 mph7.9 kmh 30.02 in1016.6 mb 0.00 in0.0 mm 0.00 in0.0 mm 0.00 in0.0 mm
11:41 AM 72.5°F22.5°C 48.3°F9.1°C 31% 5.2 mph ESE8.4 kmh ESE 5.2 mph8.4 kmh 30.01 in1016.3 mb 0.00 in0.0 mm 0.00 in0.0 mm 0.00 in0.0 mm
11:44 AM 72.1°F22.3°C 49.3°F9.6°C 31% 0.8 mph NNW1.3 kmh NNW 0.8 mph1.3 kmh 30.01 in1016.3 mb 0.00 in0.0 mm 0.00 in0.0 mm 0.00 in0.0 mm
11:47 AM 72.7°F22.6°C 48.8°F9.3°C 30% 4.4 mph SE7.1 kmh SE 4.5 mph7.2 kmh 30.01 in1016.3 mb 0.00 in0.0 mm 0.00 in0.0 mm 0.00 in0.0 mm
11:50 AM 73.6°F23.1°C 49.1°F9.5°C 30% 7.2 mph ESE11.6 kmh ESE 7.2 mph11.6 kmh 30.01 in1016.3 mb 0.00 in0.0 mm 0.00 in0.0 mm 0.00 in0.0 mm
11:53 AM 73.0°F22.8°C 51.1°F10.6°C 32% 5.2 mph NE8.4 kmh NE 5.2 mph8.4 kmh 30.00 in1015.9 mb 0.00 in0.0 mm 0.00 in0.0 mm 0.00 in0.0 mm
11:56 AM 73.1°F22.8°C 50.9°F10.5°C 31% 1.2 mph NNE1.9 kmh NNE 1.2 mph1.9 kmh 30.01 in1016.3 mb 0.00 in0.0 mm 0.00 in0.0 mm 0.00 in0.0 mm
11:59 AM 73.1°F22.8°C 49.8°F9.9°C 29% 1.6 mph SE2.6 kmh SE 1.6 mph2.6 kmh 30.01 in1016.3 mb 0.00 in0.0 mm 0.00 in0.0 mm 0.00 in0.0 mm
12:02 PM 73.5°F23.1°C 48.5°F9.2°C 29% 6.1 mph SSE9.8 kmh SSE 6.1 mph9.8 kmh 30.00 in1015.9 mb 0.00 in0.0 mm 0.00 in0.0 mm 0.00 in0.0 mm
12:05 PM 72.8°F22.7°C 50.5°F10.3°C 32% 7.7 mph SE12.4 kmh SE 7.7 mph12.4 kmh 30.00 in1015.9 mb 0.00 in0.0 mm 0.00 in0.0 mm 0.00 in0.0 mm
12:08 PM 73.2°F22.9°C 49.5°F9.7°C 32% 4.4 mph SE7.1 kmh SE 4.4 mph7.1 kmh 30.00 in1015.9 mb 0.00 in0.0 mm 0.00 in0.0 mm 0.00 in0.0 mm
12:11 PM 73.3°F22.9°C 49.4°F9.7°C 31% 4.9 mph ESE7.9 kmh ESE 4.9 mph7.9 kmh 30.00 in1015.9 mb 0.00 in0.0 mm 0.00 in0.0 mm 0.00 in0.0 mm
12:14 PM 73.6°F23.1°C 50.5°F10.3°C 32% 5.2 mph NNW8.4 kmh NNW 5.2 mph8.4 kmh 30.00 in1015.9 mb 0.00 in0.0 mm 0.00 in0.0 mm 0.00 in0.0 mm
12:17 PM 73.6°F23.1°C 49.8°F9.9°C 31% 4.0 mph SE6.4 kmh SE 4.0 mph6.4 kmh 30.00 in1015.9 mb 0.00 in0.0 mm 0.00 in0.0 mm 0.00 in0.0 mm
12:20 PM 74.0°F23.3°C 51.8°F11.0°C 32% 4.0 mph NE6.4 kmh NE 4.1 mph6.6 kmh 30.00 in1015.9 mb 0.00 in0.0 mm 0.00 in0.0 mm 0.00 in0.0 mm
12:23 PM 74.9°F23.8°C 51.8°F11.0°C 32% 4.4 mph ESE7.1 kmh ESE 4.5 mph7.2 kmh 30.00 in1015.9 mb 0.00 in0.0 mm 0.00 in0.0 mm 0.00 in0.0 mm
12:26 PM 74.8°F23.8°C 51.4°F10.8°C 31% 5.3 mph SE8.5 kmh SE 5.3 mph8.5 kmh 30.00 in1015.9 mb 0.00 in0.0 mm 0.00 in0.0 mm 0.00 in0.0 mm
12:29 PM 74.6°F23.7°C 52.9°F11.6°C 32% 2.4 mph E3.9 kmh E 2.4 mph3.9 kmh 30.00 in1015.9 mb 0.00 in0.0 mm 0.00 in0.0 mm 0.00 in0.0 mm
12:32 PM 74.2°F23.4°C 51.6°F10.9°C 31% 0.8 mph NNE1.3 kmh NNE 0.8 mph1.3 kmh 30.00 in1015.9 mb 0.00 in0.0 mm 0.00 in0.0 mm 0.00 in0.0 mm
12:35 PM 74.6°F23.7°C 52.1°F11.2°C 31% 5.9 mph ESE9.5 kmh ESE 6.0 mph9.7 kmh 30.00 in1015.9 mb 0.00 in0.0 mm 0.00 in0.0 mm 0.00 in0.0 mm
12:38 PM 74.4°F23.6°C 51.4°F10.8°C 30% 4.8 mph NNW7.7 kmh NNW 4.8 mph7.7 kmh 30.00 in1015.9 mb 0.00 in0.0 mm 0.00 in0.0 mm 0.00 in0.0 mm
12:41 PM 74.1°F23.4°C 50.1°F10.1°C 30% 0.8 mph E1.3 kmh E 0.8 mph1.3 kmh 30.00 in1015.9 mb 0.00 in0.0 mm 0.00 in0.0 mm 0.00 in0.0 mm
12:44 PM 73.3°F22.9°C 51.2°F10.7°C 31% 6.5 mph 10.5 kmh 6.5 mph10.5 kmh 30.00 in1015.9 mb 0.00 in0.0 mm 0.00 in0.0 mm 0.00 in0.0 mm
12:47 PM 75.2°F24.0°C 50.9°F10.5°C 30% 3.2 mph NNW5.1 kmh NNW 3.2 mph5.1 kmh 30.00 in1015.9 mb 0.00 in0.0 mm 0.00 in0.0 mm 0.00 in0.0 mm
12:50 PM 75.0°F23.9°C 51.1°F10.6°C 32% 5.2 mph SE8.4 kmh SE 5.2 mph8.4 kmh 30.00 in1015.9 mb 0.00 in0.0 mm 0.00 in0.0 mm 0.00 in0.0 mm
12:53 PM 75.1°F23.9°C 50.1°F10.1°C 31% 4.0 mph SE6.4 kmh SE 4.1 mph6.6 kmh 30.00 in1015.9 mb 0.00 in0.0 mm 0.00 in0.0 mm 0.00 in0.0 mm
12:56 PM 75.3°F24.1°C 51.4°F10.8°C 32% 6.5 mph ESE10.5 kmh ESE 6.5 mph10.5 kmh 29.99 in1015.6 mb 0.00 in0.0 mm 0.00 in0.0 mm 0.00 in0.0 mm
12:59 PM 75.1°F23.9°C 50.9°F10.5°C 31% 2.4 mph NNW3.9 kmh NNW 2.4 mph3.9 kmh 30.00 in1015.9 mb 0.00 in0.0 mm 0.00 in0.0 mm 0.00 in0.0 mm
01:02 PM 74.9°F23.8°C 50.3°F10.2°C 30% 4.9 mph NNW7.9 kmh NNW 4.9 mph7.9 kmh 30.00 in1015.9 mb 0.00 in0.0 mm 0.00 in0.0 mm 0.00 in0.0 mm
01:05 PM 74.8°F23.8°C 51.6°F10.9°C 32% 4.0 mph SE6.4 kmh SE 4.0 mph6.4 kmh 30.00 in1015.9 mb 0.00 in0.0 mm 0.00 in0.0 mm 0.00 in0.0 mm
01:08 PM 74.0°F23.3°C 50.1°F10.1°C 30% 3.2 mph SSE5.1 kmh SSE 3.3 mph5.3 kmh 30.00 in1015.9 mb 0.00 in0.0 mm 0.00 in0.0 mm 0.00 in0.0 mm
01:11 PM 74.5°F23.6°C 50.3°F10.2°C 31% 5.6 mph E9.0 kmh E 5.6 mph9.0 kmh 30.00 in1015.9 mb 0.00 in0.0 mm 0.00 in0.0 mm 0.00 in0.0 mm
01:14 PM 75.2°F24.0°C 52.3°F11.3°C 32% 4.4 mph ESE7.1 kmh ESE 4.5 mph7.2 kmh 30.00 in1015.9 mb 0.00 in0.0 mm 0.00 in0.0 mm 0.00 in0.0 mm
01:17 PM 75.2°F24.0°C 50.6°F10.3°C 30% 2.8 mph SSE4.5 kmh SSE 2.9 mph4.7 kmh 30.00 in1015.9 mb 0.00 in0.0 mm 0.00 in0.0 mm 0.00 in0.0 mm
01:20 PM 75.3°F24.1°C 51.1°F10.6°C 30% Calm Calm -- 30.00 in1015.9 mb 0.00 in0.0 mm 0.00 in0.0 mm 0.00 in0.0 mm
01:26 PM 75.5°F24.2°C 53.0°F11.7°C 31% 6.9 mph SE11.1 kmh SE 6.9 mph11.1 kmh 29.99 in1015.6 mb 0.00 in0.0 mm 0.00 in0.0 mm 0.00 in0.0 mm
01:29 PM 75.2°F24.0°C 51.5°F10.8°C 30% 3.6 mph NNW5.8 kmh NNW 3.7 mph6.0 kmh 29.99 in1015.6 mb 0.00 in0.0 mm 0.00 in0.0 mm 0.00 in0.0 mm
01:32 PM 75.4°F24.1°C 52.2°F11.2°C 31% 9.3 mph NNW15.0 kmh NNW 9.4 mph15.1 kmh 29.99 in1015.6 mb 0.00 in0.0 mm 0.00 in0.0 mm 0.00 in0.0 mm
01:38 PM 76.1°F24.5°C 52.6°F11.4°C 30% 4.4 mph SE7.1 kmh SE 4.5 mph7.2 kmh 30.00 in1015.9 mb 0.00 in0.0 mm 0.00 in0.0 mm 0.00 in0.0 mm
01:41 PM 75.4°F24.1°C 52.3°F11.3°C 30% 4.9 mph SE7.9 kmh SE 4.9 mph7.9 kmh 29.99 in1015.6 mb 0.00 in0.0 mm 0.00 in0.0 mm 0.00 in0.0 mm
01:44 PM 75.4°F24.1°C 53.6°F12.0°C 31% 2.0 mph NNW3.2 kmh NNW 2.0 mph3.2 kmh 29.99 in1015.6 mb 0.00 in0.0 mm 0.00 in0.0 mm 0.00 in0.0 mm
01:47 PM 75.5°F24.2°C 51.4°F10.8°C 29% 8.7 mph SE14.0 kmh SE 8.7 mph14.0 kmh 30.00 in1015.9 mb 0.00 in0.0 mm 0.00 in0.0 mm 0.00 in0.0 mm
01:50 PM 75.8°F24.3°C 52.4°F11.3°C 30% 9.7 mph NNW15.6 kmh NNW 9.7 mph15.6 kmh 30.00 in1015.9 mb 0.00 in0.0 mm 0.00 in0.0 mm 0.00 in0.0 mm
01:53 PM 75.7°F24.3°C 51.3°F10.7°C 29% 3.6 mph SE5.8 kmh SE 3.7 mph6.0 kmh 30.00 in1015.9 mb 0.00 in0.0 mm 0.00 in0.0 mm 0.00 in0.0 mm
01:56 PM 75.7°F24.3°C 52.3°F11.3°C 30% 2.4 mph SE3.9 kmh SE 2.4 mph3.9 kmh 29.99 in1015.6 mb 0.00 in0.0 mm 0.00 in0.0 mm 0.00 in0.0 mm
01:59 PM 75.9°F24.4°C 52.5°F11.4°C 31% 4.8 mph NNW7.7 kmh NNW 4.9 mph7.9 kmh 30.00 in1015.9 mb 0.00 in0.0 mm 0.00 in0.0 mm 0.00 in0.0 mm
02:02 PM 75.7°F24.3°C 52.9°F11.6°C 31% 4.7 mph ESE7.6 kmh ESE 4.8 mph7.7 kmh 30.00 in1015.9 mb 0.00 in0.0 mm 0.00 in0.0 mm 0.00 in0.0 mm
02:05 PM 76.0°F24.4°C 52.1°F11.2°C 30% 4.4 mph NNE7.1 kmh NNE 4.4 mph7.1 kmh 30.00 in1015.9 mb 0.00 in0.0 mm 0.00 in0.0 mm 0.00 in0.0 mm
02:08 PM 76.1°F24.5°C 53.5°F11.9°C 31% 4.0 mph ENE6.4 kmh ENE 4.1 mph6.6 kmh 30.00 in1015.9 mb 0.00 in0.0 mm 0.00 in0.0 mm 0.00 in0.0 mm
02:11 PM 76.2°F24.6°C 51.8°F11.0°C 29% 6.4 mph ESE10.3 kmh ESE 6.5 mph10.5 kmh 30.00 in1015.9 mb 0.00 in0.0 mm 0.00 in0.0 mm 0.00 in0.0 mm
02:14 PM 76.2°F24.6°C 52.4°F11.3°C 29% 1.6 mph SE2.6 kmh SE 1.6 mph2.6 kmh 30.00 in1015.9 mb 0.00 in0.0 mm 0.00 in0.0 mm 0.00 in0.0 mm
02:17 PM 76.3°F24.6°C 52.4°F11.3°C 29% 6.1 mph SE9.8 kmh SE 6.1 mph9.8 kmh 30.00 in1015.9 mb 0.00 in0.0 mm 0.00 in0.0 mm 0.00 in0.0 mm
02:20 PM 76.0°F24.4°C 51.1°F10.6°C 28% 10.5 mph ESE16.9 kmh ESE 10.6 mph17.1 kmh 30.00 in1015.9 mb 0.00 in0.0 mm 0.00 in0.0 mm 0.00 in0.0 mm
02:23 PM 75.7°F24.3°C 50.5°F10.3°C 28% 4.0 mph SE6.4 kmh SE 4.0 mph6.4 kmh 30.00 in1015.9 mb 0.00 in0.0 mm 0.00 in0.0 mm 0.00 in0.0 mm
02:26 PM 76.1°F24.5°C 51.7°F10.9°C 29% Calm Calm -- 30.00 in1015.9 mb 0.00 in0.0 mm 0.00 in0.0 mm 0.00 in0.0 mm
02:29 PM 76.7°F24.8°C 52.6°F11.4°C 30% 1.6 mph ESE2.6 kmh ESE 1.6 mph2.6 kmh 30.00 in1015.9 mb 0.00 in0.0 mm 0.00 in0.0 mm 0.00 in0.0 mm
02:32 PM 76.9°F24.9°C 53.0°F11.7°C 30% 9.3 mph ESE15.0 kmh ESE 9.4 mph15.1 kmh 30.00 in1015.9 mb 0.00 in0.0 mm 0.00 in0.0 mm 0.00 in0.0 mm
02:35 PM 77.1°F25.1°C 53.2°F11.8°C 30% 1.6 mph ESE2.6 kmh ESE 1.6 mph2.6 kmh 30.00 in1015.9 mb 0.00 in0.0 mm 0.00 in0.0 mm 0.00 in0.0 mm
02:38 PM 76.4°F24.7°C 53.2°F11.8°C 30% 13.3 mph NNW21.4 kmh NNW 13.3 mph21.4 kmh 30.00 in1015.9 mb 0.00 in0.0 mm 0.00 in0.0 mm 0.00 in0.0 mm
02:41 PM 76.1°F24.5°C 52.4°F11.3°C 30% 7.3 mph SE11.7 kmh SE 7.3 mph11.7 kmh 29.99 in1015.6 mb 0.00 in0.0 mm 0.00 in0.0 mm 0.00 in0.0 mm
02:44 PM 76.0°F24.4°C 52.7°F11.5°C 30% 1.6 mph S2.6 kmh S 1.6 mph2.6 kmh 29.99 in1015.6 mb 0.00 in0.0 mm 0.00 in0.0 mm 0.00 in0.0 mm
02:47 PM 76.8°F24.9°C 52.0°F11.1°C 29% 1.6 mph E2.6 kmh E 1.6 mph2.6 kmh 29.99 in1015.6 mb 0.00 in0.0 mm 0.00 in0.0 mm 0.00 in0.0 mm
02:50 PM 77.2°F25.1°C 53.1°F11.7°C 30% 3.2 mph SE5.1 kmh SE 3.3 mph5.3 kmh 29.99 in1015.6 mb 0.00 in0.0 mm 0.00 in0.0 mm 0.00 in0.0 mm
02:53 PM 76.9°F24.9°C 52.8°F11.6°C 29% Calm Calm -- 29.99 in1015.6 mb 0.00 in0.0 mm 0.00 in0.0 mm 0.00 in0.0 mm
02:56 PM 78.9°F26.1°C 54.4°F12.4°C 30% 2.4 mph ENE3.9 kmh ENE 2.4 mph3.9 kmh 29.99 in1015.6 mb 0.00 in0.0 mm 0.00 in0.0 mm 0.00 in0.0 mm
03:02 PM 76.6°F24.8°C 52.8°F11.6°C 29% 7.7 mph NNW12.4 kmh NNW 7.7 mph12.4 kmh 29.99 in1015.6 mb 0.00 in0.0 mm 0.00 in0.0 mm 0.00 in0.0 mm
03:05 PM 76.9°F24.9°C 53.6°F12.0°C 30% 0.8 mph SE1.3 kmh SE 0.8 mph1.3 kmh 29.99 in1015.6 mb 0.00 in0.0 mm 0.00 in0.0 mm 0.00 in0.0 mm
03:08 PM 77.9°F25.5°C 53.2°F11.8°C 29% 2.8 mph SE4.5 kmh SE 2.8 mph4.5 kmh 29.99 in1015.6 mb 0.00 in0.0 mm 0.00 in0.0 mm 0.00 in0.0 mm
03:11 PM 78.7°F25.9°C 53.1°F11.7°C 29% 2.4 mph E3.9 kmh E 2.4 mph3.9 kmh 29.99 in1015.6 mb 0.00 in0.0 mm 0.00 in0.0 mm 0.00 in0.0 mm
03:14 PM 78.0°F25.6°C 52.0°F11.1°C 27% 1.6 mph ESE2.6 kmh ESE 1.6 mph2.6 kmh 29.99 in1015.6 mb 0.00 in0.0 mm 0.00 in0.0 mm 0.00 in0.0 mm
03:17 PM 79.8°F26.6°C 54.1°F12.3°C 29% 4.0 mph NNW6.4 kmh NNW 4.1 mph6.6 kmh 29.99 in1015.6 mb 0.00 in0.0 mm 0.00 in0.0 mm 0.00 in0.0 mm
03:20 PM 79.1°F26.2°C 54.4°F12.4°C 30% 1.6 mph ENE2.6 kmh ENE 1.6 mph2.6 kmh 29.99 in1015.6 mb 0.00 in0.0 mm 0.00 in0.0 mm 0.00 in0.0 mm
03:23 PM 80.2°F26.8°C 52.4°F11.3°C 27% 2.8 mph NNW4.5 kmh NNW 2.8 mph4.5 kmh 29.99 in1015.6 mb 0.00 in0.0 mm 0.00 in0.0 mm 0.00 in0.0 mm
03:26 PM 80.6°F27.0°C 53.4°F11.9°C 28% 2.4 mph ENE3.9 kmh ENE 2.4 mph3.9 kmh 29.99 in1015.6 mb 0.00 in0.0 mm 0.00 in0.0 mm 0.00 in0.0 mm
03:29 PM 80.6°F27.0°C 52.6°F11.4°C 27% 7.7 mph ESE12.4 kmh ESE 7.8 mph12.6 kmh 29.99 in1015.6 mb 0.00 in0.0 mm 0.00 in0.0 mm 0.00 in0.0 mm
03:32 PM 79.8°F26.6°C 51.0°F10.6°C 27% 8.5 mph SE13.7 kmh SE 8.5 mph13.7 kmh 29.99 in1015.6 mb 0.00 in0.0 mm 0.00 in0.0 mm 0.00 in0.0 mm
03:35 PM 79.5°F26.4°C 50.9°F10.5°C 27% 4.8 mph ESE7.7 kmh ESE 4.9 mph7.9 kmh 29.99 in1015.6 mb 0.00 in0.0 mm 0.00 in0.0 mm 0.00 in0.0 mm
03:38 PM 79.4°F26.3°C 52.7°F11.5°C 28% 1.6 mph 2.6 kmh 1.6 mph2.6 kmh 29.99 in1015.6 mb 0.00 in0.0 mm 0.00 in0.0 mm 0.00 in0.0 mm
03:41 PM 80.8°F27.1°C 53.0°F11.7°C 28% 1.6 mph NNW2.6 kmh NNW 1.6 mph2.6 kmh 29.99 in1015.6 mb 0.00 in0.0 mm 0.00 in0.0 mm 0.00 in0.0 mm
03:44 PM 79.0°F26.1°C 51.7°F10.9°C 27% 7.3 mph ESE11.7 kmh ESE 7.3 mph11.7 kmh 29.99 in1015.6 mb 0.00 in0.0 mm 0.00 in0.0 mm 0.00 in0.0 mm
03:47 PM 79.7°F26.5°C 51.2°F10.7°C 27% 2.4 mph E3.9 kmh E 2.5 mph4.0 kmh 29.99 in1015.6 mb 0.00 in0.0 mm 0.00 in0.0 mm 0.00 in0.0 mm
03:50 PM 80.6°F27.0°C 52.7°F11.5°C 29% 0.4 mph NNW0.6 kmh NNW 0.4 mph0.6 kmh 29.99 in1015.6 mb 0.00 in0.0 mm 0.00 in0.0 mm 0.00 in0.0 mm
03:53 PM 80.0°F26.7°C 51.0°F10.6°C 27% 7.3 mph NNW11.7 kmh NNW 7.3 mph11.7 kmh 29.99 in1015.6 mb 0.00 in0.0 mm 0.00 in0.0 mm 0.00 in0.0 mm
03:56 PM 79.9°F26.6°C 52.4°F11.3°C 29% 5.3 mph NNW8.5 kmh NNW 5.3 mph8.5 kmh 29.99 in1015.6 mb 0.00 in0.0 mm 0.00 in0.0 mm 0.00 in0.0 mm
03:59 PM 80.4°F26.9°C 53.1°F11.7°C 29% 2.8 mph NNW4.5 kmh NNW 2.9 mph4.7 kmh 29.99 in1015.6 mb 0.00 in0.0 mm 0.00 in0.0 mm 0.00 in0.0 mm
04:02 PM 79.7°F26.5°C 51.0°F10.6°C 27% 3.6 mph ESE5.8 kmh ESE 3.7 mph6.0 kmh 29.99 in1015.6 mb 0.00 in0.0 mm 0.00 in0.0 mm 0.00 in0.0 mm
04:05 PM 80.3°F26.8°C 51.5°F10.8°C 29% 0.8 mph NNW1.3 kmh NNW 0.8 mph1.3 kmh 29.99 in1015.6 mb 0.00 in0.0 mm 0.00 in0.0 mm 0.00 in0.0 mm
04:14 PM 81.4°F27.4°C 51.8°F11.0°C 28% 3.2 mph E5.1 kmh E 3.2 mph5.1 kmh 29.99 in1015.6 mb 0.00 in0.0 mm 0.00 in0.0 mm 0.00 in0.0 mm
04:17 PM 82.6°F28.1°C 53.4°F11.9°C 30% Calm Calm -- 29.99 in1015.6 mb 0.00 in0.0 mm 0.00 in0.0 mm 0.00 in0.0 mm
04:20 PM 80.6°F27.0°C 52.4°F11.3°C 28% 1.6 mph ENE2.6 kmh ENE 1.6 mph2.6 kmh 29.99 in1015.6 mb 0.00 in0.0 mm 0.00 in0.0 mm 0.00 in0.0 mm
04:23 PM 82.2°F27.9°C 51.3°F10.7°C 27% 4.4 mph ESE7.1 kmh ESE 4.5 mph7.2 kmh 29.99 in1015.6 mb 0.00 in0.0 mm 0.00 in0.0 mm 0.00 in0.0 mm
04:26 PM 81.6°F27.6°C 51.3°F10.7°C 27% 2.0 mph SE3.2 kmh SE 2.0 mph3.2 kmh 29.99 in1015.6 mb 0.00 in0.0 mm 0.00 in0.0 mm 0.00 in0.0 mm
04:29 PM 82.1°F27.8°C 51.3°F10.7°C 28% 1.6 mph SE2.6 kmh SE 1.6 mph2.6 kmh 29.99 in1015.6 mb 0.00 in0.0 mm 0.00 in0.0 mm 0.00 in0.0 mm
04:32 PM 81.3°F27.4°C 50.0°F10.0°C 26% 0.8 mph ESE1.3 kmh ESE 0.8 mph1.3 kmh 29.98 in1015.2 mb 0.00 in0.0 mm 0.00 in0.0 mm 0.00 in0.0 mm
04:35 PM 80.7°F27.1°C 49.2°F9.6°C 26% 5.2 mph ESE8.4 kmh ESE 5.2 mph8.4 kmh 29.98 in1015.2 mb 0.00 in0.0 mm 0.00 in0.0 mm 0.00 in0.0 mm
04:38 PM 80.9°F27.2°C 49.8°F9.9°C 26% 3.6 mph SE5.8 kmh SE 3.6 mph5.8 kmh 29.98 in1015.2 mb 0.00 in0.0 mm 0.00 in0.0 mm 0.00 in0.0 mm
04:41 PM 81.8°F27.7°C 50.0°F10.0°C 27% 2.4 mph NNW3.9 kmh NNW 2.4 mph3.9 kmh 29.98 in1015.2 mb 0.00 in0.0 mm 0.00 in0.0 mm 0.00 in0.0 mm
04:44 PM 79.5°F26.4°C 52.4°F11.3°C 29% 5.7 mph NNE9.2 kmh NNE 5.7 mph9.2 kmh 29.98 in1015.2 mb 0.00 in0.0 mm 0.00 in0.0 mm 0.00 in0.0 mm
04:47 PM 80.8°F27.1°C 51.0°F10.6°C 28% 0.8 mph SSE1.3 kmh SSE 0.8 mph1.3 kmh 29.98 in1015.2 mb 0.00 in0.0 mm 0.00 in0.0 mm 0.00 in0.0 mm
04:50 PM 80.9°F27.2°C 50.9°F10.5°C 28% 3.2 mph NNW5.1 kmh NNW 3.2 mph5.1 kmh 29.99 in1015.6 mb 0.00 in0.0 mm 0.00 in0.0 mm 0.00 in0.0 mm
04:53 PM 81.8°F27.7°C 51.8°F11.0°C 28% 3.2 mph NNW5.1 kmh NNW 3.2 mph5.1 kmh 29.99 in1015.6 mb 0.00 in0.0 mm 0.00 in0.0 mm 0.00 in0.0 mm
04:56 PM 80.6°F27.0°C 50.6°F10.3°C 28% 1.6 mph NNW2.6 kmh NNW 1.6 mph2.6 kmh 29.99 in1015.6 mb 0.00 in0.0 mm 0.00 in0.0 mm 0.00 in0.0 mm
04:59 PM 82.1°F27.8°C 53.3°F11.8°C 30% 0.4 mph E0.6 kmh E 0.4 mph0.6 kmh 29.99 in1015.6 mb 0.00 in0.0 mm 0.00 in0.0 mm 0.00 in0.0 mm
05:05 PM 80.2°F26.8°C 52.6°F11.4°C 29% 6.9 mph ESE11.1 kmh ESE 6.9 mph11.1 kmh 29.99 in1015.6 mb 0.00 in0.0 mm 0.00 in0.0 mm 0.00 in0.0 mm
05:08 PM 79.8°F26.6°C 51.4°F10.8°C 28% 4.0 mph SE6.4 kmh SE 4.1 mph6.6 kmh 29.99 in1015.6 mb 0.00 in0.0 mm 0.00 in0.0 mm 0.00 in0.0 mm
05:11 PM 79.7°F26.5°C 50.5°F10.3°C 28% 3.6 mph NE5.8 kmh NE 3.7 mph6.0 kmh 29.99 in1015.6 mb 0.00 in0.0 mm 0.00 in0.0 mm 0.00 in0.0 mm
05:14 PM 80.0°F26.7°C 50.8°F10.4°C 28% 2.8 mph NNW4.5 kmh NNW 2.9 mph4.7 kmh 29.99 in1015.6 mb 0.00 in0.0 mm 0.00 in0.0 mm 0.00 in0.0 mm
05:17 PM 79.9°F26.6°C 49.8°F9.9°C 28% 0.8 mph NNW1.3 kmh NNW 0.8 mph1.3 kmh 29.99 in1015.6 mb 0.00 in0.0 mm 0.00 in0.0 mm 0.00 in0.0 mm
05:20 PM 80.4°F26.9°C 52.3°F11.3°C 30% 5.2 mph NNW8.4 kmh NNW 5.2 mph8.4 kmh 29.99 in1015.6 mb 0.00 in0.0 mm 0.00 in0.0 mm 0.00 in0.0 mm
05:23 PM 79.7°F26.5°C 52.8°F11.6°C 31% 5.6 mph NNW9.0 kmh NNW 5.7 mph9.2 kmh 29.99 in1015.6 mb 0.00 in0.0 mm 0.00 in0.0 mm 0.00 in0.0 mm
05:26 PM 79.8°F26.6°C 51.9°F11.1°C 30% 2.4 mph SE3.9 kmh SE 2.4 mph3.9 kmh 29.99 in1015.6 mb 0.00 in0.0 mm 0.00 in0.0 mm 0.00 in0.0 mm
05:32 PM 79.1°F26.2°C 49.1°F9.5°C 28% 3.2 mph NNW5.1 kmh NNW 3.3 mph5.3 kmh 29.99 in1015.6 mb 0.00 in0.0 mm 0.00 in0.0 mm 0.00 in0.0 mm
05:35 PM 79.1°F26.2°C 49.8°F9.9°C 28% 2.8 mph ESE4.5 kmh ESE 2.8 mph4.5 kmh 29.98 in1015.2 mb 0.00 in0.0 mm 0.00 in0.0 mm 0.00 in0.0 mm
05:38 PM 77.6°F25.3°C 50.2°F10.1°C 29% 6.0 mph SE9.7 kmh SE 6.0 mph9.7 kmh 29.98 in1015.2 mb 0.00 in0.0 mm 0.00 in0.0 mm 0.00 in0.0 mm
05:41 PM 78.2°F25.7°C 50.1°F10.1°C 30% 4.8 mph NE7.7 kmh NE 4.8 mph7.7 kmh 29.99 in1015.6 mb 0.00 in0.0 mm 0.00 in0.0 mm 0.00 in0.0 mm
05:44 PM 79.1°F26.2°C 52.5°F11.4°C 32% 2.0 mph ENE3.2 kmh ENE 2.0 mph3.2 kmh 29.99 in1015.6 mb 0.00 in0.0 mm 0.00 in0.0 mm 0.00 in0.0 mm
05:47 PM 79.5°F26.4°C 52.7°F11.5°C 32% Calm Calm -- 29.99 in1015.6 mb 0.00 in0.0 mm 0.00 in0.0 mm 0.00 in0.0 mm
05:50 PM 78.4°F25.8°C 52.2°F11.2°C 31% 4.8 mph ENE7.7 kmh ENE 4.8 mph7.7 kmh 29.98 in1015.2 mb 0.00 in0.0 mm 0.00 in0.0 mm 0.00 in0.0 mm
05:53 PM 78.1°F25.6°C 49.5°F9.7°C 28% 4.4 mph NNW7.1 kmh NNW 4.5 mph7.2 kmh 29.99 in1015.6 mb 0.00 in0.0 mm 0.00 in0.0 mm 0.00 in0.0 mm
05:56 PM 77.7°F25.4°C 49.7°F9.8°C 29% 4.0 mph ESE6.4 kmh ESE 4.0 mph6.4 kmh 29.99 in1015.6 mb 0.00 in0.0 mm 0.00 in0.0 mm 0.00 in0.0 mm
05:59 PM 77.2°F25.1°C 50.5°F10.3°C 30% 2.0 mph E3.2 kmh E 2.0 mph3.2 kmh 29.99 in1015.6 mb 0.00 in0.0 mm 0.00 in0.0 mm 0.00 in0.0 mm
06:05 PM 76.9°F24.9°C 48.9°F9.4°C 29% 4.0 mph SE6.4 kmh SE 4.0 mph6.4 kmh 29.99 in1015.6 mb 0.00 in0.0 mm 0.00 in0.0 mm 0.00 in0.0 mm
06:08 PM 77.2°F25.1°C 49.8°F9.9°C 30% 3.6 mph ESE5.8 kmh ESE 3.6 mph5.8 kmh 29.99 in1015.6 mb 0.00 in0.0 mm 0.00 in0.0 mm 0.00 in0.0 mm
06:11 PM 76.8°F24.9°C 49.0°F9.4°C 29% 6.9 mph ESE11.1 kmh ESE 6.9 mph11.1 kmh 29.99 in1015.6 mb 0.00 in0.0 mm 0.00 in0.0 mm 0.00 in0.0 mm
06:14 PM 76.9°F24.9°C 51.2°F10.7°C 32% 2.0 mph NNW3.2 kmh NNW 2.0 mph3.2 kmh 29.99 in1015.6 mb 0.00 in0.0 mm 0.00 in0.0 mm 0.00 in0.0 mm
06:20 PM 76.7°F24.8°C 51.8°F11.0°C 32% Calm Calm -- 29.99 in1015.6 mb 0.00 in0.0 mm 0.00 in0.0 mm 0.00 in0.0 mm
06:23 PM 75.7°F24.3°C 49.8°F9.9°C 30% 3.6 mph ESE5.8 kmh ESE 3.6 mph5.8 kmh 29.99 in1015.6 mb 0.00 in0.0 mm 0.00 in0.0 mm 0.00 in0.0 mm
06:26 PM 76.2°F24.6°C 51.3°F10.7°C 32% Calm Calm -- 29.99 in1015.6 mb 0.00 in0.0 mm 0.00 in0.0 mm 0.00 in0.0 mm
06:29 PM 75.9°F24.4°C 51.6°F10.9°C 32% 5.7 mph ESE9.2 kmh ESE 5.7 mph9.2 kmh 29.99 in1015.6 mb 0.00 in0.0 mm 0.00 in0.0 mm 0.00 in0.0 mm
06:35 PM 73.9°F23.3°C 49.1°F9.5°C 30% 4.8 mph NNW7.7 kmh NNW 4.9 mph7.9 kmh 29.99 in1015.6 mb 0.00 in0.0 mm 0.00 in0.0 mm 0.00 in0.0 mm
06:38 PM 73.4°F23.0°C 48.5°F9.2°C 30% 7.3 mph SE11.7 kmh SE 7.3 mph11.7 kmh 29.99 in1015.6 mb 0.00 in0.0 mm 0.00 in0.0 mm 0.00 in0.0 mm
06:41 PM 73.2°F22.9°C 47.8°F8.8°C 30% 4.0 mph ESE6.4 kmh ESE 4.1 mph6.6 kmh 29.99 in1015.6 mb 0.00 in0.0 mm 0.00 in0.0 mm 0.00 in0.0 mm
06:44 PM 72.7°F22.6°C 49.0°F9.4°C 31% 4.1 mph SE6.6 kmh SE 4.1 mph6.6 kmh 29.99 in1015.6 mb 0.00 in0.0 mm 0.00 in0.0 mm 0.00 in0.0 mm
06:47 PM 72.8°F22.7°C 49.3°F9.6°C 31% 6.4 mph NNW10.3 kmh NNW 6.4 mph10.3 kmh 30.00 in1015.9 mb 0.00 in0.0 mm 0.00 in0.0 mm 0.00 in0.0 mm
06:50 PM 73.2°F22.9°C 50.0°F10.0°C 33% 0.8 mph NNW1.3 kmh NNW 0.8 mph1.3 kmh 30.00 in1015.9 mb 0.00 in0.0 mm 0.00 in0.0 mm 0.00 in0.0 mm
06:53 PM 72.8°F22.7°C 50.1°F10.1°C 32% 3.6 mph NNW5.8 kmh NNW 3.7 mph6.0 kmh 30.00 in1015.9 mb 0.00 in0.0 mm 0.00 in0.0 mm 0.00 in0.0 mm
06:56 PM 72.8°F22.7°C 50.9°F10.5°C 33% 1.2 mph NNW1.9 kmh NNW 1.2 mph1.9 kmh 30.00 in1015.9 mb 0.00 in0.0 mm 0.00 in0.0 mm 0.00 in0.0 mm
06:59 PM 72.1°F22.3°C 48.6°F9.2°C 31% 2.0 mph NNW3.2 kmh NNW 2.0 mph3.2 kmh 30.00 in1015.9 mb 0.00 in0.0 mm 0.00 in0.0 mm 0.00 in0.0 mm
07:05 PM 72.1°F22.3°C 48.3°F9.1°C 30% 2.8 mph SE4.5 kmh SE 2.8 mph4.5 kmh 30.00 in1015.9 mb 0.00 in0.0 mm 0.00 in0.0 mm 0.00 in0.0 mm
07:08 PM 72.2°F22.3°C 50.6°F10.3°C 33% 2.4 mph NE3.9 kmh NE 2.4 mph3.9 kmh 30.00 in1015.9 mb 0.00 in0.0 mm 0.00 in0.0 mm 0.00 in0.0 mm
07:11 PM 71.8°F22.1°C 48.3°F9.1°C 31% 1.2 mph E1.9 kmh E 1.2 mph1.9 kmh 30.00 in1015.9 mb 0.00 in0.0 mm 0.00 in0.0 mm 0.00 in0.0 mm
07:14 PM 71.2°F21.8°C 47.9°F8.8°C 30% 2.4 mph SE3.9 kmh SE 2.4 mph3.9 kmh 30.00 in1015.9 mb 0.00 in0.0 mm 0.00 in0.0 mm 0.00 in0.0 mm
07:17 PM 70.6°F21.4°C 48.0°F8.9°C 31% 4.0 mph ESE6.4 kmh ESE 4.1 mph6.6 kmh 30.00 in1015.9 mb 0.00 in0.0 mm 0.00 in0.0 mm 0.00 in0.0 mm
07:20 PM 70.6°F21.4°C 49.2°F9.6°C 32% 2.8 mph E4.5 kmh E 2.9 mph4.7 kmh 30.00 in1015.9 mb 0.00 in0.0 mm 0.00 in0.0 mm 0.00 in0.0 mm
07:23 PM 70.5°F21.4°C 47.9°F8.8°C 31% 1.6 mph E2.6 kmh E 1.6 mph2.6 kmh 30.00 in1015.9 mb 0.00 in0.0 mm 0.00 in0.0 mm 0.00 in0.0 mm
07:26 PM 69.9°F21.1°C 47.3°F8.5°C 31% 6.1 mph ESE9.8 kmh ESE 6.1 mph9.8 kmh 30.00 in1015.9 mb 0.00 in0.0 mm 0.00 in0.0 mm 0.00 in0.0 mm
07:29 PM 69.6°F20.9°C 47.7°F8.7°C 31% 2.8 mph E4.5 kmh E 2.8 mph4.5 kmh 30.00 in1015.9 mb 0.00 in0.0 mm 0.00 in0.0 mm 0.00 in0.0 mm
07:32 PM 69.8°F21.0°C 47.2°F8.4°C 31% 4.0 mph SE6.4 kmh SE 4.1 mph6.6 kmh 30.00 in1015.9 mb 0.00 in0.0 mm 0.00 in0.0 mm 0.00 in0.0 mm
07:35 PM 69.0°F20.6°C 47.0°F8.3°C 32% 5.2 mph SE8.4 kmh SE 5.2 mph8.4 kmh 30.00 in1015.9 mb 0.00 in0.0 mm 0.00 in0.0 mm 0.00 in0.0 mm
07:41 PM 68.7°F20.4°C 46.2°F7.9°C 31% 4.4 mph ESE7.1 kmh ESE 4.5 mph7.2 kmh 30.00 in1015.9 mb 0.00 in0.0 mm 0.00 in0.0 mm 0.00 in0.0 mm
07:44 PM 68.7°F20.4°C 46.7°F8.2°C 32% 3.2 mph ESE5.1 kmh ESE 3.3 mph5.3 kmh 30.00 in1015.9 mb 0.00 in0.0 mm 0.00 in0.0 mm 0.00 in0.0 mm
07:47 PM 68.5°F20.3°C 46.3°F7.9°C 31% 6.0 mph NNW9.7 kmh NNW 6.1 mph9.8 kmh 30.00 in1015.9 mb 0.00 in0.0 mm 0.00 in0.0 mm 0.00 in0.0 mm
07:50 PM 68.3°F20.2°C 46.7°F8.2°C 32% 2.0 mph E3.2 kmh E 2.0 mph3.2 kmh 30.00 in1015.9 mb 0.00 in0.0 mm 0.00 in0.0 mm 0.00 in0.0 mm
07:53 PM 68.1°F20.1°C 47.0°F8.3°C 31% 4.8 mph E7.7 kmh E 4.9 mph7.9 kmh 30.00 in1015.9 mb 0.00 in0.0 mm 0.00 in0.0 mm 0.00 in0.0 mm
07:56 PM 67.4°F19.7°C 46.8°F8.2°C 32% 1.6 mph ESE2.6 kmh ESE 1.6 mph2.6 kmh 30.00 in1015.9 mb 0.00 in0.0 mm 0.00 in0.0 mm 0.00 in0.0 mm
07:59 PM 67.1°F19.5°C 47.1°F8.4°C 32% 2.4 mph ESE3.9 kmh ESE 2.4 mph3.9 kmh 30.00 in1015.9 mb 0.00 in0.0 mm 0.00 in0.0 mm 0.00 in0.0 mm
08:02 PM 66.3°F19.1°C 46.9°F8.3°C 33% 1.6 mph E2.6 kmh E 1.6 mph2.6 kmh 30.00 in1015.9 mb 0.00 in0.0 mm 0.00 in0.0 mm 0.00 in0.0 mm
08:05 PM 66.3°F19.1°C 46.6°F8.1°C 33% 0.4 mph NNW0.6 kmh NNW 0.4 mph0.6 kmh 30.00 in1015.9 mb 0.00 in0.0 mm 0.00 in0.0 mm 0.00 in0.0 mm
08:08 PM 65.9°F18.8°C 47.1°F8.4°C 33% 1.6 mph ESE2.6 kmh ESE 1.6 mph2.6 kmh 30.00 in1015.9 mb 0.00 in0.0 mm 0.00 in0.0 mm 0.00 in0.0 mm
08:11 PM 66.0°F18.9°C 46.4°F8.0°C 33% 1.6 mph E2.6 kmh E 1.6 mph2.6 kmh 30.01 in1016.3 mb 0.00 in0.0 mm 0.00 in0.0 mm 0.00 in0.0 mm
08:14 PM 65.8°F18.8°C 46.1°F7.8°C 33% 5.6 mph NNW9.0 kmh NNW 5.6 mph9.0 kmh 30.01 in1016.3 mb 0.00 in0.0 mm 0.00 in0.0 mm 0.00 in0.0 mm
08:20 PM 65.4°F18.6°C 46.1°F7.8°C 33% 4.8 mph ESE7.7 kmh ESE 4.9 mph7.9 kmh 30.02 in1016.6 mb 0.00 in0.0 mm 0.00 in0.0 mm 0.00 in0.0 mm
08:23 PM 64.7°F18.2°C 46.3°F7.9°C 34% 0.4 mph ESE0.6 kmh ESE 0.4 mph0.6 kmh 30.01 in1016.3 mb 0.00 in0.0 mm 0.00 in0.0 mm 0.00 in0.0 mm
08:26 PM 64.9°F18.3°C 45.9°F7.7°C 33% 3.6 mph NNW5.8 kmh NNW 3.7 mph6.0 kmh 30.01 in1016.3 mb 0.00 in0.0 mm 0.00 in0.0 mm 0.00 in0.0 mm
08:29 PM 64.5°F18.1°C 46.6°F8.1°C 35% 1.6 mph ESE2.6 kmh ESE 1.6 mph2.6 kmh 30.02 in1016.6 mb 0.00 in0.0 mm 0.00 in0.0 mm 0.00 in0.0 mm
08:32 PM 64.1°F17.8°C 46.6°F8.1°C 34% 2.0 mph ENE3.2 kmh ENE 2.0 mph3.2 kmh 30.02 in1016.6 mb 0.00 in0.0 mm 0.00 in0.0 mm 0.00 in0.0 mm
08:35 PM 64.2°F17.9°C 46.5°F8.1°C 34% 0.4 mph NNW0.6 kmh NNW 0.4 mph0.6 kmh 30.02 in1016.6 mb 0.00 in0.0 mm 0.00 in0.0 mm 0.00 in0.0 mm
08:38 PM 63.8°F17.7°C 47.1°F8.4°C 35% 1.6 mph NNW2.6 kmh NNW 1.6 mph2.6 kmh 30.02 in1016.6 mb 0.00 in0.0 mm 0.00 in0.0 mm 0.00 in0.0 mm
08:41 PM 63.6°F17.6°C 46.4°F8.0°C 35% 3.2 mph NNW5.1 kmh NNW 3.2 mph5.1 kmh 30.02 in1016.6 mb 0.00 in0.0 mm 0.00 in0.0 mm 0.00 in0.0 mm
08:44 PM 63.7°F17.6°C 46.1°F7.8°C 34% 2.4 mph ENE3.9 kmh ENE 2.4 mph3.9 kmh 30.02 in1016.6 mb 0.00 in0.0 mm 0.00 in0.0 mm 0.00 in0.0 mm
08:47 PM 63.3°F17.4°C 46.3°F7.9°C 35% 2.0 mph NNW3.2 kmh NNW 2.0 mph3.2 kmh 30.02 in1016.6 mb 0.00 in0.0 mm 0.00 in0.0 mm 0.00 in0.0 mm
08:50 PM 63.2°F17.3°C 47.0°F8.3°C 36% 0.8 mph NNW1.3 kmh NNW 0.8 mph1.3 kmh 30.02 in1016.6 mb 0.00 in0.0 mm 0.00 in0.0 mm 0.00 in0.0 mm
08:53 PM 63.1°F17.3°C 45.8°F7.7°C 35% 2.0 mph ESE3.2 kmh ESE 2.0 mph3.2 kmh 30.03 in1016.9 mb 0.00 in0.0 mm 0.00 in0.0 mm 0.00 in0.0 mm
08:56 PM 63.2°F17.3°C 45.2°F7.3°C 35% 2.4 mph NNW3.9 kmh NNW 2.4 mph3.9 kmh 30.03 in1016.9 mb 0.00 in0.0 mm 0.00 in0.0 mm 0.00 in0.0 mm
08:59 PM 62.6°F17.0°C 47.2°F8.4°C 36% 1.6 mph NNW2.6 kmh NNW 1.6 mph2.6 kmh 30.03 in1016.9 mb 0.00 in0.0 mm 0.00 in0.0 mm 0.00 in0.0 mm
09:02 PM 63.1°F17.3°C 46.2°F7.9°C 35% 5.2 mph NNW8.4 kmh NNW 5.2 mph8.4 kmh 30.03 in1016.9 mb 0.00 in0.0 mm 0.00 in0.0 mm 0.00 in0.0 mm
09:05 PM 63.2°F17.3°C 46.0°F7.8°C 36% 2.0 mph ESE3.2 kmh ESE 2.0 mph3.2 kmh 30.03 in1016.9 mb 0.00 in0.0 mm 0.00 in0.0 mm 0.00 in0.0 mm
09:08 PM 62.9°F17.2°C 45.7°F7.6°C 36% 2.0 mph E3.2 kmh E 2.0 mph3.2 kmh 30.03 in1016.9 mb 0.00 in0.0 mm 0.00 in0.0 mm 0.00 in0.0 mm
09:11 PM 62.5°F16.9°C 45.9°F7.7°C 36% 2.0 mph NNW3.2 kmh NNW 2.0 mph3.2 kmh 30.03 in1016.9 mb 0.00 in0.0 mm 0.00 in0.0 mm 0.00 in0.0 mm
09:14 PM 62.7°F17.1°C 45.7°F7.6°C 36% 8.1 mph NNW13.0 kmh NNW 8.1 mph13.0 kmh 30.03 in1016.9 mb 0.00 in0.0 mm 0.00 in0.0 mm 0.00 in0.0 mm
09:20 PM 62.0°F16.7°C 46.5°F8.1°C 37% Calm Calm -- 30.03 in1016.9 mb 0.00 in0.0 mm 0.00 in0.0 mm 0.00 in0.0 mm
09:23 PM 61.5°F16.4°C 47.0°F8.3°C 39% 0.4 mph E0.6 kmh E 0.4 mph0.6 kmh 30.03 in1016.9 mb 0.00 in0.0 mm 0.00 in0.0 mm 0.00 in0.0 mm
09:26 PM 61.7°F16.5°C 46.0°F7.8°C 37% 0.8 mph NNW1.3 kmh NNW 0.8 mph1.3 kmh 30.03 in1016.9 mb 0.00 in0.0 mm 0.00 in0.0 mm 0.00 in0.0 mm
09:29 PM 61.7°F16.5°C 46.8°F8.2°C 38% 1.6 mph ESE2.6 kmh ESE 1.6 mph2.6 kmh 30.03 in1016.9 mb 0.00 in0.0 mm 0.00 in0.0 mm 0.00 in0.0 mm
09:32 PM 61.9°F16.6°C 45.3°F7.4°C 37% 2.4 mph SE3.9 kmh SE 2.4 mph3.9 kmh 30.03 in1016.9 mb 0.00 in0.0 mm 0.00 in0.0 mm 0.00 in0.0 mm
09:35 PM 62.0°F16.7°C 45.5°F7.5°C 37% 1.6 mph E2.6 kmh E 1.6 mph2.6 kmh 30.03 in1016.9 mb 0.00 in0.0 mm 0.00 in0.0 mm 0.00 in0.0 mm
09:38 PM 62.2°F16.8°C 45.1°F7.3°C 36% 2.0 mph NNW3.2 kmh NNW 2.0 mph3.2 kmh 30.03 in1016.9 mb 0.00 in0.0 mm 0.00 in0.0 mm 0.00 in0.0 mm
09:41 PM 61.9°F16.6°C 44.8°F7.1°C 36% 0.8 mph ENE1.3 kmh ENE 0.8 mph1.3 kmh 30.03 in1016.9 mb 0.00 in0.0 mm 0.00 in0.0 mm 0.00 in0.0 mm
09:44 PM 61.5°F16.4°C 45.4°F7.4°C 38% 1.2 mph NE1.9 kmh NE 1.2 mph1.9 kmh 30.03 in1016.9 mb 0.00 in0.0 mm 0.00 in0.0 mm 0.00 in0.0 mm
09:47 PM 61.9°F16.6°C 45.2°F7.3°C 38% 1.2 mph NNW1.9 kmh NNW 1.2 mph1.9 kmh 30.03 in1016.9 mb 0.00 in0.0 mm 0.00 in0.0 mm 0.00 in0.0 mm
09:50 PM 61.8°F16.6°C 45.4°F7.4°C 37% 3.2 mph NNW5.1 kmh NNW 3.2 mph5.1 kmh 30.03 in1016.9 mb 0.00 in0.0 mm 0.00 in0.0 mm 0.00 in0.0 mm
09:53 PM 61.5°F16.4°C 44.3°F6.8°C 37% 4.4 mph NNW7.1 kmh NNW 4.5 mph7.2 kmh 30.03 in1016.9 mb 0.00 in0.0 mm 0.00 in0.0 mm 0.00 in0.0 mm
09:56 PM 61.6°F16.4°C 44.1°F6.7°C 37% 6.8 mph NNW10.9 kmh NNW 6.8 mph10.9 kmh 30.03 in1016.9 mb 0.00 in0.0 mm 0.00 in0.0 mm 0.00 in0.0 mm
09:59 PM 61.0°F16.1°C 44.4°F6.9°C 37% 2.4 mph E3.9 kmh E 2.4 mph3.9 kmh 30.03 in1016.9 mb 0.00 in0.0 mm 0.00 in0.0 mm 0.00 in0.0 mm
10:02 PM 61.4°F16.3°C 44.7°F7.1°C 37% 4.2 mph ESE6.8 kmh ESE 4.3 mph6.9 kmh 30.03 in1016.9 mb 0.00 in0.0 mm 0.00 in0.0 mm 0.00 in0.0 mm
10:05 PM 61.1°F16.2°C 44.7°F7.1°C 37% 1.2 mph NNW1.9 kmh NNW 1.2 mph1.9 kmh 30.03 in1016.9 mb 0.00 in0.0 mm 0.00 in0.0 mm 0.00 in0.0 mm
10:08 PM 61.1°F16.2°C 44.2°F6.8°C 37% 1.2 mph ENE1.9 kmh ENE 1.2 mph1.9 kmh 30.03 in1016.9 mb 0.00 in0.0 mm 0.00 in0.0 mm 0.00 in0.0 mm
10:11 PM 61.1°F16.2°C 44.1°F6.7°C 37% 0.8 mph E1.3 kmh E 0.8 mph1.3 kmh 30.03 in1016.9 mb 0.00 in0.0 mm 0.00 in0.0 mm 0.00 in0.0 mm
10:14 PM 61.0°F16.1°C 43.8°F6.6°C 37% 1.2 mph E1.9 kmh E 1.2 mph1.9 kmh 30.03 in1016.9 mb 0.00 in0.0 mm 0.00 in0.0 mm 0.00 in0.0 mm
10:17 PM 60.7°F15.9°C 43.9°F6.6°C 38% 1.6 mph NNW2.6 kmh NNW 1.6 mph2.6 kmh 30.03 in1016.9 mb 0.00 in0.0 mm 0.00 in0.0 mm 0.00 in0.0 mm
10:20 PM 61.4°F16.3°C 43.5°F6.4°C 37% 0.8 mph NNW1.3 kmh NNW 0.8 mph1.3 kmh 30.03 in1016.9 mb 0.00 in0.0 mm 0.00 in0.0 mm 0.00 in0.0 mm
10:23 PM 60.6°F15.9°C 44.3°F6.8°C 38% 0.8 mph E1.3 kmh E 0.8 mph1.3 kmh 30.03 in1016.9 mb 0.00 in0.0 mm 0.00 in0.0 mm 0.00 in0.0 mm
10:26 PM 60.9°F16.1°C 43.7°F6.5°C 38% 1.6 mph E2.6 kmh E 1.6 mph2.6 kmh 30.03 in1016.9 mb 0.00 in0.0 mm 0.00 in0.0 mm 0.00 in0.0 mm
10:32 PM 60.9°F16.1°C 43.7°F6.5°C 38% 1.2 mph E1.9 kmh E 1.2 mph1.9 kmh 30.04 in1017.3 mb 0.00 in0.0 mm 0.00 in0.0 mm 0.00 in0.0 mm
10:35 PM 60.8°F16.0°C 43.2°F6.2°C 37% 2.0 mph NNW3.2 kmh NNW 2.0 mph3.2 kmh 30.03 in1016.9 mb 0.00 in0.0 mm 0.00 in0.0 mm 0.00 in0.0 mm
10:38 PM 60.7°F15.9°C 43.2°F6.2°C 37% 2.0 mph SE3.2 kmh SE 2.0 mph3.2 kmh 30.04 in1017.3 mb 0.00 in0.0 mm 0.00 in0.0 mm 0.00 in0.0 mm
10:41 PM 60.1°F15.6°C 43.5°F6.4°C 37% 1.6 mph SE2.6 kmh SE 1.6 mph2.6 kmh 30.05 in1017.6 mb 0.00 in0.0 mm 0.00 in0.0 mm 0.00 in0.0 mm
10:44 PM 59.3°F15.2°C 44.0°F6.7°C 38% Calm Calm -- 30.04 in1017.3 mb 0.00 in0.0 mm 0.00 in0.0 mm 0.00 in0.0 mm
10:47 PM 58.8°F14.9°C 44.5°F6.9°C 40% Calm Calm -- 30.05 in1017.6 mb 0.00 in0.0 mm 0.00 in0.0 mm 0.00 in0.0 mm
10:50 PM 58.2°F14.6°C 44.9°F7.2°C 40% Calm Calm -- 30.05 in1017.6 mb 0.00 in0.0 mm 0.00 in0.0 mm 0.00 in0.0 mm
10:56 PM 57.4°F14.1°C 44.8°F7.1°C 41% Calm Calm -- 30.05 in1017.6 mb 0.00 in0.0 mm 0.00 in0.0 mm 0.00 in0.0 mm
10:59 PM 57.0°F13.9°C 45.5°F7.5°C 42% Calm Calm -- 30.05 in1017.6 mb 0.00 in0.0 mm 0.00 in0.0 mm 0.00 in0.0 mm
11:02 PM 56.6°F13.7°C 44.6°F7.0°C 41% Calm Calm -- 30.05 in1017.6 mb 0.00 in0.0 mm 0.00 in0.0 mm 0.00 in0.0 mm
11:05 PM 55.9°F13.3°C 45.2°F7.3°C 42% Calm Calm -- 30.05 in1017.6 mb 0.00 in0.0 mm 0.00 in0.0 mm 0.00 in0.0 mm
11:11 PM 55.6°F13.1°C 45.6°F7.6°C 43% 0.8 mph E1.3 kmh E 0.8 mph1.3 kmh 30.05 in1017.6 mb 0.00 in0.0 mm 0.00 in0.0 mm 0.00 in0.0 mm
11:14 PM 55.7°F13.2°C 45.3°F7.4°C 43% Calm Calm -- 30.05 in1017.6 mb 0.00 in0.0 mm 0.00 in0.0 mm 0.00 in0.0 mm
11:17 PM 54.7°F12.6°C 45.6°F7.6°C 44% Calm Calm -- 30.05 in1017.6 mb 0.00 in0.0 mm 0.00 in0.0 mm 0.00 in0.0 mm
11:20 PM 55.0°F12.8°C 45.6°F7.6°C 45% Calm Calm -- 30.05 in1017.6 mb 0.00 in0.0 mm 0.00 in0.0 mm 0.00 in0.0 mm
11:23 PM 54.8°F12.7°C 45.4°F7.4°C 45% 0.4 mph SE0.6 kmh SE 0.4 mph0.6 kmh 30.05 in1017.6 mb 0.00 in0.0 mm 0.00 in0.0 mm 0.00 in0.0 mm
11:26 PM 55.1°F12.8°C 45.1°F7.3°C 44% Calm Calm -- 30.05 in1017.6 mb 0.00 in0.0 mm 0.00 in0.0 mm 0.00 in0.0 mm
11:29 PM 55.2°F12.9°C 44.7°F7.1°C 44% Calm Calm -- 30.05 in1017.6 mb 0.00 in0.0 mm 0.00 in0.0 mm 0.00 in0.0 mm
11:32 PM 53.8°F12.1°C 45.1°F7.3°C 45% 0.8 mph ESE1.3 kmh ESE 0.8 mph1.3 kmh 30.05 in1017.6 mb 0.00 in0.0 mm 0.00 in0.0 mm 0.00 in0.0 mm
11:35 PM 54.8°F12.7°C 44.0°F6.7°C 43% Calm Calm -- 30.05 in1017.6 mb 0.00 in0.0 mm 0.00 in0.0 mm 0.00 in0.0 mm
11:38 PM 55.1°F12.8°C 43.4°F6.3°C 43% Calm Calm -- 30.05 in1017.6 mb 0.00 in0.0 mm 0.00 in0.0 mm 0.00 in0.0 mm
11:41 PM 56.3°F13.5°C 42.9°F6.1°C 42% 0.4 mph ESE0.6 kmh ESE 0.4 mph0.6 kmh 30.05 in1017.6 mb 0.00 in0.0 mm 0.00 in0.0 mm 0.00 in0.0 mm
11:47 PM 57.0°F13.9°C 42.6°F5.9°C 41% 3.2 mph SE5.1 kmh SE 3.2 mph5.1 kmh 30.05 in1017.6 mb 0.00 in0.0 mm 0.00 in0.0 mm 0.00 in0.0 mm
11:50 PM 57.2°F14.0°C 42.6°F5.9°C 42% 2.4 mph NNW3.9 kmh NNW 2.4 mph3.9 kmh 30.05 in1017.6 mb 0.00 in0.0 mm 0.00 in0.0 mm 0.00 in0.0 mm
11:53 PM 57.3°F14.1°C 42.8°F6.0°C 42% 1.2 mph E1.9 kmh E 1.2 mph1.9 kmh 30.05 in1017.6 mb 0.00 in0.0 mm 0.00 in0.0 mm 0.00 in0.0 mm
11:56 PM 57.2°F14.0°C 42.9°F6.1°C 42% 3.6 mph ESE5.8 kmh ESE 3.7 mph6.0 kmh 30.05 in1017.6 mb 0.00 in0.0 mm 0.00 in0.0 mm 0.00 in0.0 mm
11:59 PM 57.3°F14.1°C 42.8°F6.0°C 42% 1.2 mph ESE1.9 kmh ESE 1.2 mph1.9 kmh 30.05 in1017.6 mb 0.00 in0.0 mm 0.00 in0.0 mm 0.00 in0.0 mm